Observation data for Mertzon on 08/14/2019      Previous  Date  Next       Current Mesonet Observations  Soil Data  Daily Summary Page  Observations in Plain Language
KME1 140500Z 00000KT 24/22 A3001 RMK A01 T02380222  RH  091%=      5-min Rain = 0
KME1 140501Z 00000KT 24/23 A3001 RMK A01 T02380225  RH  092%=      5-min Rain = 0
KME1 140502Z 14000KT 24/23 A3001 RMK A01 T02380226  RH  093%=      5-min Rain = 0
KME1 140503Z 15001KT 24/22 A3001 RMK A01 T02380224  RH  092%=      5-min Rain = 0
KME1 140504Z 17001KT 24/23 A3001 RMK A01 T02370226  RH  093%=      5-min Rain = 0
KME1 140505Z 19002KT 24/23 A3001 RMK A01 T02370227  RH  094%=      5-min Rain = 0
KME1 140506Z 22001KT 24/23 A3001 RMK A01 T02360227  RH  095%=      5-min Rain = 0
KME1 140507Z 24002KT 24/23 A3001 RMK A01 T02350228  RH  096%=      5-min Rain = 0
KME1 140508Z 25001KT 24/23 A3001 RMK A01 T02350228  RH  096%=      5-min Rain = 0
KME1 140509Z 25001KT 23/23 A3001 RMK A01 T02340226  RH  095%=      5-min Rain = 0
KME1 140510Z 27001KT 23/23 A3001 RMK A01 T02340225  RH  095%=      5-min Rain = 0
KME1 140527Z 21003KT 23/22 A3002 RMK A01 T02320221  RH  093%=      5-min Rain = 0
KME1 140528Z 21003KT 23/22 A3002 RMK A01 T02310221  RH  094%=      5-min Rain = 0
KME1 140529Z 22003KT 23/22 A3002 RMK A01 T02310221  RH  094%=      5-min Rain = 0
KME1 140530Z 25003KT 23/22 A3002 RMK A01 T02310222  RH  095%=      5-min Rain = 0
KME1 140531Z 26003KT 23/22 A3002 RMK A01 T02310223  RH  095%=      5-min Rain = 0
KME1 140532Z 27003KT 23/22 A3002 RMK A01 T02310223  RH  095%=      5-min Rain = 0
KME1 140533Z 26003KT 23/22 A3002 RMK A01 T02310223  RH  095%=      5-min Rain = 0
KME1 140534Z 24003KT 23/22 A3002 RMK A01 T02310223  RH  095%=      5-min Rain = 0
KME1 140535Z 23003KT 23/22 A3002 RMK A01 T02310223  RH  095%=      5-min Rain = 0
KME1 140536Z 22004KT 23/22 A3002 RMK A01 T02310224  RH  096%=      5-min Rain = 0
KME1 140537Z 22004KT 23/23 A3002 RMK A01 T02310225  RH  096%=      5-min Rain = 0
KME1 140538Z 23004KT 23/23 A3002 RMK A01 T02300225  RH  097%=      5-min Rain = 0
KME1 140539Z 24003KT 23/23 A3002 RMK A01 T02300225  RH  097%=      5-min Rain = 0
KME1 140540Z 25002KT 23/22 A3002 RMK A01 T02290224  RH  097%=      5-min Rain = 0
KME1 140541Z 26002KT 23/22 A3002 RMK A01 T02300224  RH  097%=      5-min Rain = 0
KME1 140542Z 25001KT 23/22 A3002 RMK A01 T02290223  RH  096%=      5-min Rain = 0
KME1 140543Z 23001KT 23/22 A3002 RMK A01 T02300223  RH  096%=      5-min Rain = 0
KME1 140544Z 21002KT 23/22 A3002 RMK A01 T02300222  RH  096%=      5-min Rain = 0
KME1 140545Z 20003KT 23/22 A3002 RMK A01 T02290222  RH  096%=      5-min Rain = 0
KME1 140546Z 18004KT 23/22 A3002 RMK A01 T02290222  RH  096%=      5-min Rain = 0
KME1 140547Z 17005KT 23/22 A3002 RMK A01 T02290223  RH  096%=      5-min Rain = 0
KME1 140548Z 17006KT 23/23 A3002 RMK A01 T02290225  RH  097%=      5-min Rain = 0
KME1 140549Z 18005KT 23/23 A3002 RMK A01 T02290225  RH  098%=      5-min Rain = 0
KME1 140550Z 18004KT 23/23 A3002 RMK A01 T02290225  RH  098%=      5-min Rain = 0
KME1 140551Z 19003KT 23/23 A3002 RMK A01 T02290225  RH  098%=      5-min Rain = 0
KME1 140552Z 19002KT 23/22 A3002 RMK A01 T02290224  RH  097%=      5-min Rain = 0
KME1 140553Z 20002KT 23/23 A3002 RMK A01 T02300225  RH  097%=      5-min Rain = 0
KME1 140554Z 20002KT 23/23 A3002 RMK A01 T02300225  RH  097%=      5-min Rain = 0
KME1 140555Z 20004KT 23/22 A3002 RMK A01 T02300224  RH  096%=      5-min Rain = 0
KME1 140556Z 21005KT 23/22 A3002 RMK A01 T02300224  RH  096%=      5-min Rain = 0
KME1 140557Z 21005KT 23/22 A3002 RMK A01 T02310224  RH  096%=      5-min Rain = 0
KME1 140558Z 22004KT 23/23 A3002 RMK A01 T02310225  RH  096%=      5-min Rain = 0
KME1 140559Z 22004KT 23/22 A3002 RMK A01 T02300224  RH  096%=      5-min Rain = 0
KME1 140600Z 22003KT 23/22 A3002 RMK A01 T02300224  RH  096%=      5-min Rain = 0
KME1 140601Z 21004KT 23/22 A3002 RMK A01 T02300224  RH  096%=      5-min Rain = 0
KME1 140602Z 21004KT 23/23 A3002 RMK A01 T02300225  RH  097%=      5-min Rain = 0
KME1 140603Z 21004KT 23/23 A3002 RMK A01 T02300225  RH  097%=      5-min Rain = 0
KME1 140604Z 21004KT 23/23 A3002 RMK A01 T02290226  RH  098%=      5-min Rain = 0
KME1 140605Z 22004KT 23/23 A3003 RMK A01 T02290226  RH  098%=      5-min Rain = 0
KME1 140606Z 22004KT 23/23 A3003 RMK A01 T02290226  RH  098%=      5-min Rain = 0
KME1 140607Z 23004KT 23/23 A3003 RMK A01 T02290226  RH  098%=      5-min Rain = 0
KME1 140608Z 23004KT 23/23 A3003 RMK A01 T02290226  RH  098%=      5-min Rain = 0
KME1 140609Z 24004KT 23/23 A3003 RMK A01 T02290225  RH  098%=      5-min Rain = 0
KME1 140610Z 24004KT 23/23 A3003 RMK A01 T02290225  RH  097%=      5-min Rain = 0
KME1 140611Z 23004KT 23/22 A3003 RMK A01 T02290224  RH  097%=      5-min Rain = 0
KME1 140612Z 21004KT 23/22 A3003 RMK A01 T02290223  RH  096%=      5-min Rain = 0
KME1 140613Z 20004KT 23/22 A3003 RMK A01 T02300223  RH  096%=      5-min Rain = 0
KME1 140614Z 20004KT 23/22 A3003 RMK A01 T02300223  RH  096%=      5-min Rain = 0
KME1 140615Z 20004KT 23/22 A3003 RMK A01 T02300223  RH  096%=      5-min Rain = 0
KME1 140616Z 21003KT 23/22 A3003 RMK A01 T02300223  RH  096%=      5-min Rain = 0
KME1 140617Z 23003KT 23/22 A3003 RMK A01 T02300224  RH  097%=      5-min Rain = 0
KME1 140618Z 22003KT 23/22 A3003 RMK A01 T02300224  RH  097%=      5-min Rain = 0
KME1 140619Z 22004KT 23/22 A3003 RMK A01 T02300224  RH  097%=      5-min Rain = 0
KME1 140620Z 21004KT 23/23 A3003 RMK A01 T02300225  RH  097%=      5-min Rain = 0
KME1 140621Z 21004KT 23/23 A3003 RMK A01 T02300225  RH  097%=      5-min Rain = 0
KME1 140622Z 21003KT 23/23 A3003 RMK A01 T02310226  RH  097%=      5-min Rain = 0
KME1 140623Z 22002KT 23/23 A3003 RMK A01 T02310226  RH  097%=      5-min Rain = 0
KME1 140624Z 22002KT 23/23 A3003 RMK A01 T02320226  RH  097%=      5-min Rain = 0
KME1 140625Z 21001KT 23/23 A3003 RMK A01 T02320226  RH  096%=      5-min Rain = 0
KME1 140626Z 19002KT 23/23 A3003 RMK A01 T02320226  RH  096%=      5-min Rain = 0
KME1 140627Z 18003KT 23/23 A3004 RMK A01 T02330227  RH  096%=      5-min Rain = 0
KME1 140628Z 18003KT 23/23 A3004 RMK A01 T02330227  RH  096%=      5-min Rain = 0
KME1 140629Z 19003KT 23/23 A3004 RMK A01 T02330227  RH  096%=      5-min Rain = 0
KME1 140630Z 20004KT 23/23 A3004 RMK A01 T02340228  RH  096%=      5-min Rain = 0
KME1 140631Z 20004KT 23/23 A3004 RMK A01 T02340228  RH  096%=      5-min Rain = 0
KME1 140632Z 20004KT 24/23 A3004 RMK A01 T02350227  RH  095%=      5-min Rain = 0
KME1 140633Z 21004KT 24/23 A3004 RMK A01 T02350227  RH  095%=      5-min Rain = 0
KME1 140634Z 23004KT 24/23 A3004 RMK A01 T02360227  RH  095%=      5-min Rain = 0
KME1 140635Z 25004KT 24/23 A3004 RMK A01 T02360227  RH  094%=      5-min Rain = 0
KME1 140636Z 26004KT 24/23 A3004 RMK A01 T02370227  RH  094%=      5-min Rain = 0
KME1 140637Z 25005KT 24/23 A3003 RMK A01 T02370225  RH  093%=      5-min Rain = 0
KME1 140638Z 25005KT 24/22 A3003 RMK A01 T02370224  RH  092%=      5-min Rain = 0
KME1 140639Z 25005KT 24/22 A3003 RMK A01 T02380223  RH  091%=      5-min Rain = 0
KME1 140640Z 26006KT 24/22 A3003 RMK A01 T02380220  RH  090%=      5-min Rain = 0
KME1 140641Z 26006KT 24/22 A3003 RMK A01 T02380216  RH  087%=      5-min Rain = 0
KME1 140642Z 26005KT 24/21 A3003 RMK A01 T02400211  RH  084%=      5-min Rain = 0
KME1 140643Z 26004KT 24/21 A3003 RMK A01 T02410208  RH  082%=      5-min Rain = 0
KME1 140644Z 26004KT 24/21 A3003 RMK A01 T02430207  RH  081%=      5-min Rain = 0
KME1 140645Z 23002KT 24/21 A3004 RMK A01 T02440209  RH  081%=      5-min Rain = 0
KME1 140646Z 18003KT 25/22 A3004 RMK A01 T02450217  RH  085%=      5-min Rain = 0
KME1 140647Z 18004KT 25/22 A3004 RMK A01 T02450220  RH  086%=      5-min Rain = 0
KME1 140648Z 17005KT 24/22 A3004 RMK A01 T02430221  RH  087%=      5-min Rain = 0
KME1 140649Z 18006KT 24/22 A3004 RMK A01 T02420222  RH  088%=      5-min Rain = 0
KME1 140650Z 20007KT 24/22 A3004 RMK A01 T02410215  RH  085%=      5-min Rain = 0
KME1 140651Z 21006KT 24/20 A3004 RMK A01 T02430203  RH  079%=      5-min Rain = 0
KME1 140652Z 22005KT 25/20 A3004 RMK A01 T02470199  RH  074%=      5-min Rain = 0
KME1 140653Z 23003KT 25/20 A3004 RMK A01 T02520199  RH  073%=      5-min Rain = 0
KME1 140654Z 24002KT 25/20 A3004 RMK A01 T02540202  RH  073%=      5-min Rain = 0
KME1 140655Z 24003KT 26/20 A3004 RMK A01 T02550203  RH  073%=      5-min Rain = 0
KME1 140656Z 25002KT 25/20 A3004 RMK A01 T02540204  RH  074%=      5-min Rain = 0
KME1 140657Z 28001KT 25/21 A3004 RMK A01 T02540206  RH  075%=      5-min Rain = 0
KME1 140658Z 27001KT 25/21 A3004 RMK A01 T02530210  RH  077%=      5-min Rain = 0
KME1 140659Z 26001KT 25/21 A3004 RMK A01 T02520212  RH  079%=      5-min Rain = 0
KME1 140700Z 25001KT 25/21 A3004 RMK A01 T02500213  RH  080%=      5-min Rain = 0
KME1 140701Z 23002KT 25/21 A3004 RMK A01 T02490214  RH  081%=      5-min Rain = 0
KME1 140702Z 22002KT 25/21 A3004 RMK A01 T02480213  RH  081%=      5-min Rain = 0
KME1 140703Z 22002KT 25/21 A3004 RMK A01 T02480214  RH  082%=      5-min Rain = 0
KME1 140704Z 23001KT 25/21 A3003 RMK A01 T02470212  RH  081%=      5-min Rain = 0
KME1 140705Z 23001KT 25/21 A3003 RMK A01 T02470214  RH  082%=      5-min Rain = 0
KME1 140706Z 20001KT 25/21 A3003 RMK A01 T02460211  RH  081%=      5-min Rain = 0
KME1 140707Z 19001KT 25/21 A3003 RMK A01 T02470211  RH  081%=      5-min Rain = 0
KME1 140708Z 18002KT 25/21 A3003 RMK A01 T02460212  RH  081%=      5-min Rain = 0
KME1 140709Z 19002KT 25/21 A3003 RMK A01 T02460213  RH  082%=      5-min Rain = 0
KME1 140710Z 19002KT 25/22 A3003 RMK A01 T02460215  RH  083%=      5-min Rain = 0
KME1 140711Z 18002KT 25/21 A3003 RMK A01 T02450214  RH  083%=      5-min Rain = 0
KME1 140712Z 17002KT 25/21 A3003 RMK A01 T02450213  RH  083%=      5-min Rain = 0
KME1 140713Z 18002KT 24/22 A3003 RMK A01 T02440215  RH  084%=      5-min Rain = 0
KME1 140714Z 18003KT 24/21 A3003 RMK A01 T02440213  RH  083%=      5-min Rain = 0
KME1 140715Z 17002KT 24/21 A3003 RMK A01 T02430210  RH  082%=      5-min Rain = 0
KME1 140716Z 18002KT 24/21 A3003 RMK A01 T02430212  RH  083%=      5-min Rain = 0
KME1 140717Z 19003KT 24/21 A3003 RMK A01 T02430213  RH  083%=      5-min Rain = 0
KME1 140718Z 19003KT 24/21 A3003 RMK A01 T02430212  RH  083%=      5-min Rain = 0
KME1 140719Z 20003KT 24/21 A3003 RMK A01 T02440211  RH  082%=      5-min Rain = 0
KME1 140720Z 19003KT 24/21 A3003 RMK A01 T02440211  RH  082%=      5-min Rain = 0
KME1 140721Z 18003KT 24/21 A3003 RMK A01 T02440209  RH  081%=      5-min Rain = 0
KME1 140722Z 19003KT 24/21 A3003 RMK A01 T02440211  RH  082%=      5-min Rain = 0
KME1 140723Z 19004KT 24/21 A3003 RMK A01 T02440212  RH  083%=      5-min Rain = 0
KME1 140724Z 20003KT 24/21 A3003 RMK A01 T02430213  RH  083%=      5-min Rain = 0
KME1 140725Z 20004KT 24/21 A3003 RMK A01 T02430212  RH  083%=      5-min Rain = 0
KME1 140726Z 20004KT 24/21 A3003 RMK A01 T02430213  RH  083%=      5-min Rain = 0
KME1 140727Z 20005KT 24/21 A3003 RMK A01 T02420213  RH  084%=      5-min Rain = 0
KME1 140728Z 20005KT 24/21 A3003 RMK A01 T02410212  RH  084%=      5-min Rain = 0
KME1 140729Z 21004KT 24/21 A3003 RMK A01 T02410210  RH  083%=      5-min Rain = 0
KME1 140730Z 21004KT 24/21 A3003 RMK A01 T02400209  RH  083%=      5-min Rain = 0
KME1 140731Z 22004KT 24/21 A3003 RMK A01 T02400209  RH  083%=      5-min Rain = 0
KME1 140732Z 23004KT 24/21 A3003 RMK A01 T02400209  RH  083%=      5-min Rain = 0
KME1 140733Z 24004KT 24/21 A3003 RMK A01 T02400208  RH  083%=      5-min Rain = 0
KME1 140734Z 24005KT 24/21 A3003 RMK A01 T02390208  RH  082%=      5-min Rain = 0
KME1 140735Z 23005KT 24/21 A3003 RMK A01 T02390206  RH  082%=      5-min Rain = 0
KME1 140736Z 23005KT 24/21 A3003 RMK A01 T02380205  RH  082%=      5-min Rain = 0
KME1 140737Z 23004KT 24/20 A3002 RMK A01 T02380204  RH  081%=      5-min Rain = 0
KME1 140738Z 22004KT 24/20 A3002 RMK A01 T02370204  RH  081%=      5-min Rain = 0
KME1 140739Z 22004KT 24/20 A3002 RMK A01 T02370204  RH  082%=      5-min Rain = 0
KME1 140740Z 22003KT 24/20 A3002 RMK A01 T02360203  RH  082%=      5-min Rain = 0
KME1 140741Z 23003KT 24/20 A3002 RMK A01 T02360203  RH  082%=      5-min Rain = 0
KME1 140742Z 24003KT 24/20 A3002 RMK A01 T02360204  RH  082%=      5-min Rain = 0
KME1 140743Z 24004KT 24/20 A3002 RMK A01 T02360204  RH  082%=      5-min Rain = 0
KME1 140744Z 24004KT 24/20 A3002 RMK A01 T02360204  RH  083%=      5-min Rain = 0
KME1 140745Z 23004KT 24/21 A3002 RMK A01 T02350205  RH  083%=      5-min Rain = 0
KME1 140746Z 22003KT 23/21 A3002 RMK A01 T02340206  RH  084%=      5-min Rain = 0
KME1 140747Z 20003KT 23/21 A3002 RMK A01 T02340206  RH  085%=      5-min Rain = 0
KME1 140748Z 18004KT 23/21 A3002 RMK A01 T02330206  RH  085%=      5-min Rain = 0
KME1 140749Z 18004KT 23/21 A3002 RMK A01 T02330206  RH  085%=      5-min Rain = 0
KME1 140750Z 17005KT 23/21 A3002 RMK A01 T02330206  RH  085%=      5-min Rain = 0
KME1 140751Z 18005KT 23/21 A3002 RMK A01 T02330207  RH  085%=      5-min Rain = 0
KME1 140752Z 18004KT 23/21 A3002 RMK A01 T02330207  RH  085%=      5-min Rain = 0
KME1 140753Z 18004KT 23/21 A3002 RMK A01 T02330206  RH  085%=      5-min Rain = 0
KME1 140754Z 18004KT 23/21 A3002 RMK A01 T02340207  RH  085%=      5-min Rain = 0
KME1 140755Z 18004KT 23/21 A3002 RMK A01 T02340205  RH  084%=      5-min Rain = 0
KME1 140756Z 18004KT 23/20 A3002 RMK A01 T02340204  RH  083%=      5-min Rain = 0
KME1 140757Z 19004KT 24/20 A3002 RMK A01 T02360204  RH  082%=      5-min Rain = 0
KME1 140758Z 20004KT 24/20 A3002 RMK A01 T02360204  RH  082%=      5-min Rain = 0
KME1 140759Z 20004KT 24/21 A3002 RMK A01 T02370205  RH  083%=      5-min Rain = 0
KME1 140800Z 19004KT 24/20 A3002 RMK A01 T02370204  RH  082%=      5-min Rain = 0
KME1 140801Z 19004KT 24/21 A3002 RMK A01 T02370205  RH  082%=      5-min Rain = 0
KME1 140802Z 19004KT 24/21 A3002 RMK A01 T02370206  RH  083%=      5-min Rain = 0
KME1 140803Z 19004KT 24/21 A3002 RMK A01 T02360205  RH  083%=      5-min Rain = 0
KME1 140804Z 19003KT 24/21 A3002 RMK A01 T02360205  RH  083%=      5-min Rain = 0
KME1 140805Z 19003KT 24/21 A3002 RMK A01 T02360205  RH  082%=      5-min Rain = 0
KME1 140806Z 19004KT 24/21 A3002 RMK A01 T02360205  RH  083%=      5-min Rain = 0
KME1 140807Z 20004KT 24/21 A3002 RMK A01 T02360206  RH  083%=      5-min Rain = 0
KME1 140808Z 19004KT 24/21 A3002 RMK A01 T02350206  RH  084%=      5-min Rain = 0
KME1 140809Z 20004KT 23/21 A3002 RMK A01 T02340206  RH  084%=      5-min Rain = 0
KME1 140810Z 20004KT 23/21 A3002 RMK A01 T02330206  RH  085%=      5-min Rain = 0
KME1 140811Z 19005KT 23/21 A3002 RMK A01 T02330207  RH  085%=      5-min Rain = 0
KME1 140812Z 19004KT 23/21 A3002 RMK A01 T02320207  RH  086%=      5-min Rain = 0
KME1 140813Z 19004KT 23/21 A3002 RMK A01 T02310208  RH  086%=      5-min Rain = 0
KME1 140814Z 20004KT 23/21 A3002 RMK A01 T02310209  RH  087%=      5-min Rain = 0
KME1 140815Z 20004KT 23/21 A3002 RMK A01 T02300209  RH  088%=      5-min Rain = 0
KME1 140816Z 20004KT 23/21 A3002 RMK A01 T02300209  RH  088%=      5-min Rain = 0
KME1 140817Z 19004KT 23/21 A3002 RMK A01 T02290209  RH  089%=      5-min Rain = 0
KME1 140818Z 19004KT 23/21 A3002 RMK A01 T02290209  RH  089%=      5-min Rain = 0
KME1 140819Z 19004KT 23/21 A3002 RMK A01 T02290209  RH  089%=      5-min Rain = 0
KME1 140820Z 20004KT 23/21 A3002 RMK A01 T02280209  RH  089%=      5-min Rain = 0
KME1 140821Z 19004KT 23/21 A3002 RMK A01 T02280209  RH  089%=      5-min Rain = 0
KME1 140822Z 19004KT 23/21 A3002 RMK A01 T02280210  RH  090%=      5-min Rain = 0
KME1 140823Z 19004KT 23/21 A3002 RMK A01 T02270210  RH  090%=      5-min Rain = 0
KME1 140824Z 19004KT 23/21 A3002 RMK A01 T02270211  RH  090%=      5-min Rain = 0
KME1 140825Z 19004KT 23/21 A3002 RMK A01 T02270211  RH  091%=      5-min Rain = 0
KME1 140826Z 19004KT 23/21 A3002 RMK A01 T02270211  RH  091%=      5-min Rain = 0
KME1 140827Z 19004KT 23/21 A3002 RMK A01 T02270211  RH  091%=      5-min Rain = 0
KME1 140828Z 19004KT 23/21 A3002 RMK A01 T02270211  RH  091%=      5-min Rain = 0
KME1 140829Z 19004KT 23/21 A3002 RMK A01 T02270211  RH  091%=      5-min Rain = 0
KME1 140830Z 18003KT 23/21 A3002 RMK A01 T02270211  RH  091%=      5-min Rain = 0
KME1 140831Z 18004KT 23/21 A3002 RMK A01 T02270211  RH  091%=      5-min Rain = 0
KME1 140832Z 18004KT 23/21 A3002 RMK A01 T02280212  RH  091%=      5-min Rain = 0
KME1 140833Z 18005KT 23/21 A3002 RMK A01 T02280212  RH  091%=      5-min Rain = 0
KME1 140834Z 19004KT 23/21 A3002 RMK A01 T02280212  RH  091%=      5-min Rain = 0
KME1 140835Z 19003KT 23/21 A3002 RMK A01 T02280213  RH  091%=      5-min Rain = 0
KME1 140836Z 19004KT 23/21 A3002 RMK A01 T02290212  RH  091%=      5-min Rain = 0
KME1 140837Z 19004KT 23/21 A3002 RMK A01 T02290213  RH  090%=      5-min Rain = 0
KME1 140838Z 19005KT 23/21 A3002 RMK A01 T02290213  RH  090%=      5-min Rain = 0
KME1 140839Z 18005KT 23/21 A3002 RMK A01 T02290213  RH  091%=      5-min Rain = 0
KME1 140840Z 19004KT 23/21 A3002 RMK A01 T02290213  RH  091%=      5-min Rain = 0
KME1 140841Z 19004KT 23/21 A3002 RMK A01 T02290213  RH  090%=      5-min Rain = 0
KME1 140842Z 19004KT 23/21 A3002 RMK A01 T02300213  RH  090%=      5-min Rain = 0
KME1 140843Z 18004KT 23/21 A3002 RMK A01 T02300212  RH  090%=      5-min Rain = 0
KME1 140844Z 18005KT 23/21 A3002 RMK A01 T02300213  RH  090%=      5-min Rain = 0
KME1 140845Z 19005KT 23/21 A3002 RMK A01 T02300212  RH  090%=      5-min Rain = 0
KME1 140846Z 18004KT 23/21 A3002 RMK A01 T02300212  RH  090%=      5-min Rain = 0
KME1 140847Z 18004KT 23/21 A3002 RMK A01 T02310212  RH  089%=      5-min Rain = 0
KME1 140848Z 19004KT 23/21 A3002 RMK A01 T02310212  RH  089%=      5-min Rain = 0
KME1 140849Z 19004KT 23/21 A3002 RMK A01 T02320212  RH  089%=      5-min Rain = 0
KME1 140850Z 19004KT 23/21 A3002 RMK A01 T02320212  RH  088%=      5-min Rain = 0
KME1 140851Z 20004KT 23/21 A3002 RMK A01 T02320212  RH  089%=      5-min Rain = 0
KME1 140852Z 20004KT 23/21 A3002 RMK A01 T02320213  RH  089%=      5-min Rain = 0
KME1 140853Z 20004KT 23/21 A3002 RMK A01 T02310213  RH  089%=      5-min Rain = 0
KME1 140854Z 19004KT 23/21 A3002 RMK A01 T02310213  RH  090%=      5-min Rain = 0
KME1 140855Z 19004KT 23/21 A3002 RMK A01 T02300213  RH  090%=      5-min Rain = 0
KME1 140856Z 18004KT 23/21 A3002 RMK A01 T02300213  RH  090%=      5-min Rain = 0
KME1 140857Z 18005KT 23/21 A3002 RMK A01 T02300213  RH  090%=      5-min Rain = 0
KME1 140858Z 19004KT 23/21 A3002 RMK A01 T02290212  RH  090%=      5-min Rain = 0
KME1 140859Z 19004KT 23/21 A3002 RMK A01 T02290213  RH  090%=      5-min Rain = 0
KME1 140900Z 19004KT 23/21 A3002 RMK A01 T02290212  RH  090%=      5-min Rain = 0
KME1 140901Z 19005KT 23/21 A3002 RMK A01 T02300212  RH  090%=      5-min Rain = 0
KME1 140902Z 19005KT 23/21 A3002 RMK A01 T02300212  RH  090%=      5-min Rain = 0
KME1 140903Z 19005KT 23/21 A3002 RMK A01 T02300212  RH  090%=      5-min Rain = 0
KME1 140904Z 19004KT 23/21 A3002 RMK A01 T02300212  RH  089%=      5-min Rain = 0
KME1 140905Z 19004KT 23/21 A3002 RMK A01 T02310213  RH  090%=      5-min Rain = 0
KME1 140906Z 19004KT 23/21 A3002 RMK A01 T02310213  RH  090%=      5-min Rain = 0
KME1 140907Z 20005KT 23/21 A3002 RMK A01 T02300212  RH  090%=      5-min Rain = 0
KME1 140908Z 19004KT 23/21 A3002 RMK A01 T02310213  RH  090%=      5-min Rain = 0
KME1 140909Z 19004KT 23/21 A3002 RMK A01 T02310212  RH  089%=      5-min Rain = 0
KME1 140910Z 19004KT 23/21 A3002 RMK A01 T02310213  RH  089%=      5-min Rain = 0
KME1 140911Z 20004KT 23/21 A3002 RMK A01 T02310212  RH  089%=      5-min Rain = 0
KME1 140912Z 21004KT 23/21 A3002 RMK A01 T02310212  RH  089%=      5-min Rain = 0
KME1 140913Z 20004KT 23/21 A3002 RMK A01 T02310213  RH  089%=      5-min Rain = 0
KME1 140914Z 20004KT 23/21 A3002 RMK A01 T02310214  RH  090%=      5-min Rain = 0
KME1 140915Z 21005KT 23/21 A3002 RMK A01 T02300214  RH  090%=      5-min Rain = 0
KME1 140916Z 21005KT 23/21 A3002 RMK A01 T02300214  RH  090%=      5-min Rain = 0
KME1 140917Z 20005KT 23/21 A3002 RMK A01 T02300214  RH  091%=      5-min Rain = 0
KME1 140918Z 20004KT 23/22 A3002 RMK A01 T02300215  RH  091%=      5-min Rain = 0
KME1 140919Z 20004KT 23/21 A3002 RMK A01 T02300214  RH  091%=      5-min Rain = 0
KME1 140920Z 20004KT 23/22 A3002 RMK A01 T02300215  RH  091%=      5-min Rain = 0
KME1 140921Z 20004KT 23/22 A3002 RMK A01 T02300215  RH  091%=      5-min Rain = 0
KME1 140922Z 21004KT 23/22 A3002 RMK A01 T02300215  RH  091%=      5-min Rain = 0
KME1 140923Z 21004KT 23/22 A3002 RMK A01 T02300215  RH  092%=      5-min Rain = 0
KME1 140924Z 21004KT 23/22 A3002 RMK A01 T02300215  RH  092%=      5-min Rain = 0
KME1 140925Z 21004KT 23/22 A3002 RMK A01 T02290216  RH  092%=      5-min Rain = 0
KME1 140926Z 22004KT 23/22 A3002 RMK A01 T02290216  RH  092%=      5-min Rain = 0
KME1 140927Z 21005KT 23/22 A3002 RMK A01 T02290215  RH  092%=      5-min Rain = 0
KME1 140928Z 21004KT 23/22 A3002 RMK A01 T02290215  RH  092%=      5-min Rain = 0
KME1 140929Z 21004KT 23/22 A3002 RMK A01 T02290215  RH  092%=      5-min Rain = 0
KME1 140930Z 21004KT 23/22 A3002 RMK A01 T02290216  RH  092%=      5-min Rain = 0
KME1 140931Z 21004KT 23/22 A3002 RMK A01 T02290216  RH  092%=      5-min Rain = 0
KME1 140932Z 21004KT 23/22 A3002 RMK A01 T02290216  RH  092%=      5-min Rain = 0
KME1 140933Z 21004KT 23/22 A3002 RMK A01 T02290216  RH  092%=      5-min Rain = 0
KME1 140934Z 20004KT 23/22 A3002 RMK A01 T02280216  RH  092%=      5-min Rain = 0
KME1 140935Z 20004KT 23/22 A3002 RMK A01 T02280216  RH  093%=      5-min Rain = 0
KME1 140936Z 20004KT 23/22 A3002 RMK A01 T02280215  RH  093%=      5-min Rain = 0
KME1 140937Z 19005KT 23/22 A3002 RMK A01 T02270215  RH  093%=      5-min Rain = 0
KME1 140938Z 19005KT 23/22 A3002 RMK A01 T02270215  RH  093%=      5-min Rain = 0
KME1 140939Z 19004KT 23/21 A3002 RMK A01 T02270214  RH  092%=      5-min Rain = 0
KME1 140940Z 20004KT 23/21 A3002 RMK A01 T02270214  RH  092%=      5-min Rain = 0
KME1 140941Z 19004KT 23/21 A3002 RMK A01 T02270214  RH  092%=      5-min Rain = 0
KME1 140942Z 20003KT 23/21 A3002 RMK A01 T02270213  RH  092%=      5-min Rain = 0
KME1 140943Z 19003KT 23/21 A3002 RMK A01 T02270213  RH  092%=      5-min Rain = 0
KME1 140944Z 20004KT 23/21 A3002 RMK A01 T02270212  RH  091%=      5-min Rain = 0
KME1 140945Z 20004KT 23/21 A3002 RMK A01 T02280212  RH  091%=      5-min Rain = 0
KME1 140946Z 19004KT 23/21 A3002 RMK A01 T02290212  RH  090%=      5-min Rain = 0
KME1 140947Z 20004KT 23/21 A3002 RMK A01 T02290211  RH  090%=      5-min Rain = 0
KME1 140948Z 20004KT 23/21 A3002 RMK A01 T02290211  RH  090%=      5-min Rain = 0
KME1 140949Z 21004KT 23/21 A3002 RMK A01 T02290211  RH  089%=      5-min Rain = 0
KME1 140950Z 20004KT 23/21 A3002 RMK A01 T02300211  RH  089%=      5-min Rain = 0
KME1 140951Z 20004KT 23/21 A3002 RMK A01 T02300211  RH  089%=      5-min Rain = 0
KME1 140952Z 22004KT 23/21 A3002 RMK A01 T02300211  RH  089%=      5-min Rain = 0
KME1 140953Z 21004KT 23/21 A3002 RMK A01 T02300212  RH  089%=      5-min Rain = 0
KME1 140954Z 21004KT 23/21 A3002 RMK A01 T02290211  RH  089%=      5-min Rain = 0
KME1 140955Z 22004KT 23/21 A3002 RMK A01 T02300212  RH  090%=      5-min Rain = 0
KME1 140956Z 23004KT 23/21 A3002 RMK A01 T02290212  RH  090%=      5-min Rain = 0
KME1 140957Z 24004KT 23/21 A3002 RMK A01 T02290212  RH  090%=      5-min Rain = 0
KME1 140958Z 23004KT 23/21 A3002 RMK A01 T02290211  RH  090%=      5-min Rain = 0
KME1 140959Z 23004KT 23/21 A3002 RMK A01 T02290211  RH  090%=      5-min Rain = 0
KME1 141000Z 23004KT 23/21 A3002 RMK A01 T02290211  RH  089%=      5-min Rain = 0
KME1 141001Z 23004KT 23/21 A3002 RMK A01 T02280210  RH  089%=      5-min Rain = 0
KME1 141002Z 22005KT 23/21 A3002 RMK A01 T02290209  RH  089%=      5-min Rain = 0
KME1 141003Z 22004KT 23/21 A3002 RMK A01 T02290209  RH  089%=      5-min Rain = 0
KME1 141004Z 21004KT 23/21 A3002 RMK A01 T02280209  RH  089%=      5-min Rain = 0
KME1 141005Z 19004KT 23/21 A3002 RMK A01 T02280209  RH  089%=      5-min Rain = 0
KME1 141006Z 19004KT 23/21 A3002 RMK A01 T02270209  RH  089%=      5-min Rain = 0
KME1 141007Z 19004KT 23/21 A3002 RMK A01 T02270210  RH  090%=      5-min Rain = 0
KME1 141008Z 19004KT 23/21 A3002 RMK A01 T02270211  RH  091%=      5-min Rain = 0
KME1 141009Z 20004KT 23/21 A3002 RMK A01 T02260211  RH  091%=      5-min Rain = 0
KME1 141010Z 20004KT 23/21 A3002 RMK A01 T02260210  RH  091%=      5-min Rain = 0
KME1 141011Z 19004KT 23/21 A3002 RMK A01 T02260210  RH  090%=      5-min Rain = 0
KME1 141012Z 19003KT 23/21 A3002 RMK A01 T02260210  RH  091%=      5-min Rain = 0
KME1 141013Z 20003KT 23/21 A3002 RMK A01 T02260211  RH  091%=      5-min Rain = 0
KME1 141014Z 20003KT 23/21 A3002 RMK A01 T02260211  RH  091%=      5-min Rain = 0
KME1 141015Z 21003KT 23/21 A3002 RMK A01 T02260211  RH  091%=      5-min Rain = 0
KME1 141016Z 20003KT 23/21 A3002 RMK A01 T02260211  RH  091%=      5-min Rain = 0
KME1 141017Z 19003KT 23/21 A3002 RMK A01 T02260211  RH  091%=      5-min Rain = 0
KME1 141018Z 20003KT 23/21 A3002 RMK A01 T02260211  RH  092%=      5-min Rain = 0
KME1 141019Z 20003KT 23/21 A3002 RMK A01 T02250211  RH  092%=      5-min Rain = 0
KME1 141020Z 18003KT 23/21 A3002 RMK A01 T02250211  RH  092%=      5-min Rain = 0
KME1 141021Z 19003KT 23/21 A3002 RMK A01 T02260212  RH  092%=      5-min Rain = 0
KME1 141022Z 19004KT 23/21 A3002 RMK A01 T02250212  RH  092%=      5-min Rain = 0
KME1 141023Z 18004KT 23/21 A3002 RMK A01 T02250212  RH  092%=      5-min Rain = 0
KME1 141024Z 19004KT 23/21 A3002 RMK A01 T02250212  RH  092%=      5-min Rain = 0
KME1 141025Z 19004KT 23/21 A3002 RMK A01 T02260212  RH  092%=      5-min Rain = 0
KME1 141026Z 19004KT 23/21 A3002 RMK A01 T02260212  RH  092%=      5-min Rain = 0
KME1 141027Z 18004KT 23/21 A3002 RMK A01 T02260212  RH  091%=      5-min Rain = 0
KME1 141028Z 18004KT 23/21 A3002 RMK A01 T02270212  RH  091%=      5-min Rain = 0
KME1 141029Z 18004KT 23/21 A3002 RMK A01 T02270212  RH  091%=      5-min Rain = 0
KME1 141030Z 19003KT 23/21 A3002 RMK A01 T02270212  RH  091%=      5-min Rain = 0
KME1 141031Z 19003KT 23/21 A3002 RMK A01 T02270211  RH  091%=      5-min Rain = 0
KME1 141032Z 19003KT 23/21 A3002 RMK A01 T02270212  RH  091%=      5-min Rain = 0
KME1 141033Z 20003KT 23/21 A3002 RMK A01 T02270212  RH  091%=      5-min Rain = 0
KME1 141034Z 20004KT 23/21 A3002 RMK A01 T02270211  RH  091%=      5-min Rain = 0
KME1 141035Z 21003KT 23/21 A3002 RMK A01 T02270211  RH  091%=      5-min Rain = 0
KME1 141036Z 21003KT 23/21 A3002 RMK A01 T02270212  RH  091%=      5-min Rain = 0
KME1 141037Z 21004KT 23/21 A3002 RMK A01 T02260211  RH  091%=      5-min Rain = 0
KME1 141038Z 20004KT 23/21 A3002 RMK A01 T02260211  RH  091%=      5-min Rain = 0
KME1 141039Z 20003KT 23/21 A3002 RMK A01 T02260212  RH  092%=      5-min Rain = 0
KME1 141040Z 20003KT 23/21 A3002 RMK A01 T02250211  RH  092%=      5-min Rain = 0
KME1 141041Z 21003KT 23/21 A3002 RMK A01 T02250212  RH  092%=      5-min Rain = 0
KME1 141042Z 20003KT 23/21 A3002 RMK A01 T02250212  RH  092%=      5-min Rain = 0
KME1 141043Z 21002KT 23/21 A3002 RMK A01 T02250212  RH  092%=      5-min Rain = 0
KME1 141044Z 21001KT 23/21 A3002 RMK A01 T02250212  RH  092%=      5-min Rain = 0
KME1 141045Z 23000KT 23/21 A3002 RMK A01 T02250212  RH  093%=      5-min Rain = 0
KME1 141046Z 33001KT 22/21 A3002 RMK A01 T02240212  RH  092%=      5-min Rain = 0
KME1 141047Z 32001KT 22/21 A3002 RMK A01 T02240211  RH  092%=      5-min Rain = 0
KME1 141048Z 31001KT 22/21 A3002 RMK A01 T02240211  RH  092%=      5-min Rain = 0
KME1 141049Z 30001KT 22/21 A3002 RMK A01 T02230210  RH  092%=      5-min Rain = 0
KME1 141050Z 29001KT 22/21 A3002 RMK A01 T02220210  RH  093%=      5-min Rain = 0
KME1 141051Z 28001KT 22/21 A3002 RMK A01 T02210209  RH  093%=      5-min Rain = 0
KME1 141052Z 24000KT 22/21 A3002 RMK A01 T02210210  RH  093%=      5-min Rain = 0
KME1 141053Z 23000KT 22/21 A3002 RMK A01 T02210210  RH  093%=      5-min Rain = 0
KME1 141054Z 22000KT 22/21 A3002 RMK A01 T02200210  RH  094%=      5-min Rain = 0
KME1 141055Z 21001KT 22/21 A3002 RMK A01 T02200210  RH  094%=      5-min Rain = 0
KME1 141056Z 21001KT 22/21 A3002 RMK A01 T02200209  RH  094%=      5-min Rain = 0
KME1 141057Z 22001KT 22/21 A3003 RMK A01 T02200210  RH  094%=      5-min Rain = 0
KME1 141058Z 21001KT 22/21 A3003 RMK A01 T02200210  RH  094%=      5-min Rain = 0
KME1 141059Z 21001KT 22/21 A3003 RMK A01 T02200209  RH  094%=      5-min Rain = 0
KME1 141100Z 21001KT 22/21 A3003 RMK A01 T02200209  RH  094%=      5-min Rain = 0
KME1 141101Z 21001KT 22/21 A3003 RMK A01 T02200209  RH  094%=      5-min Rain = 0
KME1 141102Z 21001KT 22/21 A3003 RMK A01 T02200210  RH  094%=      5-min Rain = 0
KME1 141103Z 22001KT 22/21 A3003 RMK A01 T02190210  RH  094%=      5-min Rain = 0
KME1 141104Z 22001KT 22/21 A3003 RMK A01 T02190210  RH  094%=      5-min Rain = 0
KME1 141105Z 23000KT 22/21 A3003 RMK A01 T02190210  RH  094%=      5-min Rain = 0
KME1 141106Z 00000KT 22/21 A3003 RMK A01 T02190209  RH  094%=      5-min Rain = 0
KME1 141107Z 00000KT 22/21 A3003 RMK A01 T02190209  RH  094%=      5-min Rain = 0
KME1 141108Z 31000KT 22/21 A3003 RMK A01 T02190209  RH  094%=      5-min Rain = 0
KME1 141109Z 32001KT 22/21 A3003 RMK A01 T02180209  RH  094%=      5-min Rain = 0
KME1 141110Z 31001KT 22/21 A3003 RMK A01 T02180208  RH  094%=      5-min Rain = 0
KME1 141111Z 30001KT 22/21 A3003 RMK A01 T02170207  RH  094%=      5-min Rain = 0
KME1 141112Z 30000KT 22/21 A3003 RMK A01 T02170207  RH  094%=      5-min Rain = 0
KME1 141113Z 26001KT 22/21 A3003 RMK A01 T02170206  RH  093%=      5-min Rain = 0
KME1 141114Z 25000KT 22/21 A3003 RMK A01 T02160206  RH  094%=      5-min Rain = 0
KME1 141115Z 25001KT 22/21 A3003 RMK A01 T02160206  RH  094%=      5-min Rain = 0
KME1 141116Z 24001KT 22/21 A3003 RMK A01 T02160205  RH  094%=      5-min Rain = 0
KME1 141117Z 22001KT 22/21 A3003 RMK A01 T02160205  RH  094%=      5-min Rain = 0
KME1 141118Z 21001KT 22/21 A3003 RMK A01 T02160205  RH  093%=      5-min Rain = 0
KME1 141119Z 21002KT 22/20 A3003 RMK A01 T02160204  RH  093%=      5-min Rain = 0
KME1 141120Z 20002KT 22/20 A3003 RMK A01 T02160204  RH  093%=      5-min Rain = 0
KME1 141121Z 20002KT 22/21 A3003 RMK A01 T02160205  RH  093%=      5-min Rain = 0
KME1 141122Z 19002KT 22/21 A3003 RMK A01 T02160205  RH  093%=      5-min Rain = 0
KME1 141123Z 19003KT 22/21 A3003 RMK A01 T02150205  RH  094%=      5-min Rain = 0
KME1 141124Z 19003KT 21/21 A3003 RMK A01 T02140206  RH  095%=      5-min Rain = 0
KME1 141125Z 19003KT 21/21 A3003 RMK A01 T02130208  RH  097%=      5-min Rain = 0
KME1 141126Z 20003KT 21/21 A3003 RMK A01 T02130209  RH  098%=      5-min Rain = 0
KME1 141127Z 20003KT 21/21 A3003 RMK A01 T02130210  RH  098%=      5-min Rain = 0
KME1 141128Z 20003KT 21/21 A3003 RMK A01 T02120209  RH  098%=      5-min Rain = 0
KME1 141129Z 19002KT 21/21 A3003 RMK A01 T02120210  RH  099%=      5-min Rain = 0
KME1 141130Z 20002KT 21/21 A3003 RMK A01 T02120210  RH  099%=      5-min Rain = 0
KME1 141131Z 21002KT 21/21 A3003 RMK A01 T02110211  RH  099%=      5-min Rain = 0
KME1 141132Z 20002KT 21/21 A3003 RMK A01 T02110211  RH  100%=      5-min Rain = 0
KME1 141133Z 20002KT 21/21 A3003 RMK A01 T02120212  RH  100%=      5-min Rain = 0
KME1 141134Z 21002KT 21/21 A3003 RMK A01 T02120212  RH  100%=      5-min Rain = 0
KME1 141135Z 20002KT 21/21 A3003 RMK A01 T02130213  RH  100%=      5-min Rain = 0
KME1 141136Z 21002KT 21/21 A3003 RMK A01 T02140213  RH  099%=      5-min Rain = 0
KME1 141137Z 22002KT 22/21 A3003 RMK A01 T02150212  RH  099%=      5-min Rain = 0
KME1 141138Z 21002KT 22/21 A3003 RMK A01 T02150212  RH  098%=      5-min Rain = 0
KME1 141139Z 21003KT 22/21 A3003 RMK A01 T02160212  RH  098%=      5-min Rain = 0
KME1 141140Z 21003KT 22/21 A3003 RMK A01 T02160213  RH  098%=      5-min Rain = 0
KME1 141141Z 22002KT 22/21 A3003 RMK A01 T02160212  RH  098%=      5-min Rain = 0
KME1 141142Z 22002KT 22/21 A3003 RMK A01 T02160211  RH  097%=      5-min Rain = 0
KME1 141143Z 21002KT 22/21 A3003 RMK A01 T02160211  RH  097%=      5-min Rain = 0
KME1 141144Z 21002KT 22/21 A3003 RMK A01 T02160212  RH  097%=      5-min Rain = 0
KME1 141145Z 21002KT 22/21 A3003 RMK A01 T02160212  RH  097%=      5-min Rain = 0
KME1 141146Z 21002KT 22/21 A3003 RMK A01 T02160212  RH  098%=      5-min Rain = 0
KME1 141147Z 21002KT 22/21 A3004 RMK A01 T02170212  RH  097%=      5-min Rain = 0
KME1 141148Z 19002KT 22/21 A3004 RMK A01 T02170212  RH  097%=      5-min Rain = 0
KME1 141149Z 19002KT 22/21 A3004 RMK A01 T02170212  RH  097%=      5-min Rain = 0
KME1 141150Z 18002KT 22/21 A3004 RMK A01 T02170210  RH  096%=      5-min Rain = 0
KME1 141151Z 18002KT 22/21 A3004 RMK A01 T02150208  RH  095%=      5-min Rain = 0
KME1 141152Z 17002KT 21/21 A3004 RMK A01 T02140208  RH  096%=      5-min Rain = 0
KME1 141153Z 16003KT 21/21 A3004 RMK A01 T02130210  RH  098%=      5-min Rain = 0
KME1 141154Z 16003KT 21/21 A3004 RMK A01 T02130212  RH  099%=      5-min Rain = 0
KME1 141155Z 17003KT 21/21 A3004 RMK A01 T02130212  RH  099%=      5-min Rain = 0
KME1 141156Z 17003KT 21/21 A3004 RMK A01 T02130212  RH  099%=      5-min Rain = 0
KME1 141157Z 17003KT 21/21 A3004 RMK A01 T02130213  RH  100%=      5-min Rain = 0
KME1 141158Z 18003KT 21/21 A3004 RMK A01 T02130213  RH  100%=      5-min Rain = 0
KME1 141159Z 18003KT 21/21 A3004 RMK A01 T02130213  RH  100%=      5-min Rain = 0
KME1 141200Z 18003KT 21/21 A3004 RMK A01 T02130213  RH  100%=      5-min Rain = 0
KME1 141201Z 19002KT 21/21 A3004 RMK A01 T02130213  RH  100%=      5-min Rain = 0
KME1 141202Z 20002KT 21/21 A3004 RMK A01 T02130213  RH  100%=      5-min Rain = 0
KME1 141203Z 21002KT 21/21 A3004 RMK A01 T02130213  RH  100%=      5-min Rain = 0
KME1 141204Z 21001KT 21/21 A3004 RMK A01 T02130214  RH  100%=      5-min Rain = 0
KME1 141205Z 22001KT 21/21 A3004 RMK A01 T02130214  RH  100%=      5-min Rain = 0
KME1 141206Z 22002KT 21/21 A3004 RMK A01 T02140214  RH  100%=      5-min Rain = 0
KME1 141207Z 22002KT 21/21 A3004 RMK A01 T02140214  RH  100%=      5-min Rain = 0
KME1 141208Z 22002KT 21/21 A3004 RMK A01 T02130214  RH  100%=      5-min Rain = 0
KME1 141209Z 22002KT 21/21 A3004 RMK A01 T02130213  RH  100%=      5-min Rain = 0
KME1 141210Z 23002KT 21/21 A3004 RMK A01 T02130213  RH  100%=      5-min Rain = 0
KME1 141211Z 22002KT 21/21 A3004 RMK A01 T02130213  RH  100%=      5-min Rain = 0
KME1 141212Z 21002KT 21/21 A3004 RMK A01 T02130213  RH  100%=      5-min Rain = 0
KME1 141213Z 21002KT 21/21 A3005 RMK A01 T02130213  RH  100%=      5-min Rain = 0
KME1 141214Z 20002KT 21/21 A3005 RMK A01 T02130213  RH  100%=      5-min Rain = 0
KME1 141215Z 20002KT 21/21 A3005 RMK A01 T02130213  RH  100%=      5-min Rain = 0
KME1 141216Z 20002KT 21/21 A3005 RMK A01 T02130213  RH  100%=      5-min Rain = 0
KME1 141217Z 20002KT 21/21 A3005 RMK A01 T02130213  RH  100%=      5-min Rain = 0
KME1 141218Z 21002KT 21/21 A3005 RMK A01 T02130213  RH  100%=      5-min Rain = 0
KME1 141219Z 20002KT 21/21 A3005 RMK A01 T02130213  RH  100%=      5-min Rain = 0
KME1 141220Z 20002KT 21/21 A3005 RMK A01 T02130213  RH  100%=      5-min Rain = 0
KME1 141221Z 21002KT 21/21 A3005 RMK A01 T02130213  RH  100%=      5-min Rain = 0
KME1 141222Z 22002KT 21/21 A3005 RMK A01 T02130213  RH  100%=      5-min Rain = 0
KME1 141223Z 23002KT 21/21 A3005 RMK A01 T02130213  RH  100%=      5-min Rain = 0
KME1 141224Z 24001KT 21/21 A3005 RMK A01 T02130213  RH  100%=      5-min Rain = 0
KME1 141225Z 24001KT 21/21 A3005 RMK A01 T02130213  RH  100%=      5-min Rain = 0
KME1 141226Z 25001KT 21/21 A3006 RMK A01 T02130213  RH  100%=      5-min Rain = 0
KME1 141227Z 25001KT 21/21 A3006 RMK A01 T02140214  RH  100%=      5-min Rain = 0
KME1 141228Z 29001KT 21/21 A3006 RMK A01 T02140214  RH  100%=      5-min Rain = 0
KME1 141229Z 33002KT 21/21 A3006 RMK A01 T02140213  RH  099%=      5-min Rain = 0
KME1 141230Z 34004KT 21/21 A3006 RMK A01 T02140212  RH  099%=      5-min Rain = 0
KME1 141231Z 34005KT 21/21 A3006 RMK A01 T02140207  RH  096%=      5-min Rain = 0
KME1 141232Z 34005KT 21/21 A3006 RMK A01 T02130205  RH  096%=      5-min Rain = 0
KME1 141233Z 34005KT 21/20 A3006 RMK A01 T02120204  RH  096%=      5-min Rain = 0
KME1 141234Z 34004KT 21/20 A3006 RMK A01 T02110204  RH  096%=      5-min Rain = 0
KME1 141235Z 33004KT 21/20 A3006 RMK A01 T02100203  RH  096%=      5-min Rain = 0
KME1 141236Z 32004KT 21/20 A3006 RMK A01 T02100203  RH  096%=      5-min Rain = 0
KME1 141237Z 33003KT 21/20 A3006 RMK A01 T02100203  RH  096%=      5-min Rain = 0
KME1 141238Z 32003KT 21/20 A3006 RMK A01 T02100203  RH  096%=      5-min Rain = 0
KME1 141239Z 30002KT 21/20 A3006 RMK A01 T02100203  RH  096%=      5-min Rain = 0
KME1 141240Z 30002KT 21/20 A3006 RMK A01 T02100204  RH  096%=      5-min Rain = 0
KME1 141241Z 31001KT 21/21 A3006 RMK A01 T02110205  RH  096%=      5-min Rain = 0
KME1 141242Z 27000KT 21/21 A3006 RMK A01 T02110205  RH  096%=      5-min Rain = 0
KME1 141243Z 20001KT 21/21 A3006 RMK A01 T02110205  RH  096%=      5-min Rain = 0
KME1 141244Z 21000KT 21/21 A3006 RMK A01 T02110206  RH  097%=      5-min Rain = 0
KME1 141245Z 28001KT 21/21 A3006 RMK A01 T02100207  RH  098%=      5-min Rain = 0
KME1 141246Z 29002KT 21/21 A3006 RMK A01 T02100207  RH  098%=      5-min Rain = 0
KME1 141247Z 29001KT 21/21 A3006 RMK A01 T02100206  RH  097%=      5-min Rain = 0
KME1 141248Z 31002KT 21/21 A3006 RMK A01 T02110207  RH  098%=      5-min Rain = 0
KME1 141249Z 30002KT 21/21 A3006 RMK A01 T02110208  RH  098%=      5-min Rain = 0
KME1 141250Z 29002KT 21/21 A3006 RMK A01 T02120209  RH  098%=      5-min Rain = 0
KME1 141251Z 30002KT 21/21 A3006 RMK A01 T02120209  RH  098%=      5-min Rain = 0
KME1 141252Z 31002KT 21/21 A3006 RMK A01 T02130209  RH  098%=      5-min Rain = 0
KME1 141253Z 33002KT 21/21 A3006 RMK A01 T02140209  RH  097%=      5-min Rain = 0
KME1 141254Z 33002KT 21/21 A3006 RMK A01 T02140210  RH  097%=      5-min Rain = 0
KME1 141255Z 31002KT 21/21 A3006 RMK A01 T02140209  RH  097%=      5-min Rain = 0
KME1 141256Z 31002KT 21/21 A3007 RMK A01 T02140210  RH  097%=      5-min Rain = 0
KME1 141257Z 30001KT 22/21 A3007 RMK A01 T02150210  RH  097%=      5-min Rain = 0
KME1 141258Z 32001KT 22/21 A3007 RMK A01 T02150209  RH  096%=      5-min Rain = 0
KME1 141259Z 30000KT 22/21 A3007 RMK A01 T02150209  RH  096%=      5-min Rain = 0
KME1 141300Z 00000KT 22/21 A3007 RMK A01 T02170211  RH  096%=      5-min Rain = 0
KME1 141301Z 00000KT 22/21 A3007 RMK A01 T02180212  RH  096%=      5-min Rain = 0
KME1 141302Z 00000KT 22/21 A3007 RMK A01 T02200213  RH  096%=      5-min Rain = 0
KME1 141303Z 00000KT 22/21 A3007 RMK A01 T02220212  RH  094%=      5-min Rain = 0
KME1 141304Z 00000KT 22/21 A3007 RMK A01 T02240211  RH  092%=      5-min Rain = 0
KME1 141305Z 00000KT 23/21 A3007 RMK A01 T02260208  RH  090%=      5-min Rain = 0
KME1 141306Z 00000KT 23/21 A3007 RMK A01 T02270210  RH  090%=      5-min Rain = 0
KME1 141307Z 00000KT 23/21 A3007 RMK A01 T02290211  RH  090%=      5-min Rain = 0
KME1 141308Z 00000KT 23/21 A3007 RMK A01 T02300211  RH  089%=      5-min Rain = 0
KME1 141309Z 00000KT 23/21 A3007 RMK A01 T02320211  RH  088%=      5-min Rain = 0
KME1 141310Z 00000KT 23/21 A3007 RMK A01 T02340210  RH  086%=      5-min Rain = 0
KME1 141311Z 00000KT 24/21 A3007 RMK A01 T02350208  RH  085%=      5-min Rain = 0
KME1 141312Z 00000KT 24/21 A3007 RMK A01 T02360208  RH  084%=      5-min Rain = 0
KME1 141313Z 00000KT 24/21 A3007 RMK A01 T02380209  RH  084%=      5-min Rain = 0
KME1 141314Z 00000KT 24/21 A3007 RMK A01 T02380208  RH  083%=      5-min Rain = 0
KME1 141315Z 00000KT 24/21 A3007 RMK A01 T02400208  RH  082%=      5-min Rain = 0
KME1 141316Z 00000KT 24/21 A3007 RMK A01 T02410207  RH  081%=      5-min Rain = 0
KME1 141317Z 00000KT 24/21 A3007 RMK A01 T02420208  RH  082%=      5-min Rain = 0
KME1 141318Z 00000KT 24/21 A3007 RMK A01 T02420209  RH  081%=      5-min Rain = 0
KME1 141319Z 00000KT 24/21 A3007 RMK A01 T02430210  RH  082%=      5-min Rain = 0
KME1 141320Z 00000KT 24/21 A3007 RMK A01 T02440208  RH  081%=      5-min Rain = 0
KME1 141321Z 00000KT 25/21 A3007 RMK A01 T02450209  RH  080%=      5-min Rain = 0
KME1 141322Z 00000KT 25/21 A3007 RMK A01 T02460207  RH  079%=      5-min Rain = 0
KME1 141323Z 00000KT 25/21 A3007 RMK A01 T02480207  RH  078%=      5-min Rain = 0
KME1 141324Z 00000KT 25/21 A3007 RMK A01 T02500208  RH  078%=      5-min Rain = 0
KME1 141325Z 00000KT 25/21 A3007 RMK A01 T02520210  RH  078%=      5-min Rain = 0
KME1 141326Z 00000KT 25/21 A3007 RMK A01 T02540210  RH  077%=      5-min Rain = 0
KME1 141327Z 19000KT 26/21 A3007 RMK A01 T02550208  RH  075%=      5-min Rain = 0
KME1 141328Z 00000KT 26/21 A3007 RMK A01 T02560209  RH  075%=      5-min Rain = 0
KME1 141329Z 00000KT 26/21 A3008 RMK A01 T02560211  RH  076%=      5-min Rain = 0
KME1 141330Z 00000KT 26/21 A3008 RMK A01 T02580211  RH  076%=      5-min Rain = 0
KME1 141331Z 00000KT 26/21 A3008 RMK A01 T02580211  RH  075%=      5-min Rain = 0
KME1 141332Z 00000KT 26/21 A3008 RMK A01 T02590210  RH  075%=      5-min Rain = 0
KME1 141333Z 12000KT 26/21 A3008 RMK A01 T02600210  RH  074%=      5-min Rain = 0
KME1 141334Z 00000KT 26/21 A3008 RMK A01 T02600211  RH  074%=      5-min Rain = 0
KME1 141335Z 13000KT 26/21 A3008 RMK A01 T02610211  RH  074%=      5-min Rain = 0
KME1 141336Z 00000KT 26/21 A3008 RMK A01 T02620209  RH  073%=      5-min Rain = 0
KME1 141337Z 13001KT 26/21 A3008 RMK A01 T02620210  RH  073%=      5-min Rain = 0
KME1 141338Z 16001KT 26/21 A3008 RMK A01 T02620212  RH  074%=      5-min Rain = 0
KME1 141339Z 16000KT 26/21 A3008 RMK A01 T02620209  RH  073%=      5-min Rain = 0
KME1 141340Z 15001KT 26/21 A3008 RMK A01 T02630210  RH  073%=      5-min Rain = 0
KME1 141341Z 16000KT 26/21 A3008 RMK A01 T02640212  RH  073%=      5-min Rain = 0
KME1 141342Z 08001KT 26/21 A3008 RMK A01 T02640212  RH  073%=      5-min Rain = 0
KME1 141343Z 18001KT 26/21 A3008 RMK A01 T02640213  RH  074%=      5-min Rain = 0
KME1 141344Z 28002KT 26/21 A3008 RMK A01 T02640212  RH  073%=      5-min Rain = 0
KME1 141345Z 25002KT 26/21 A3008 RMK A01 T02640212  RH  073%=      5-min Rain = 0
KME1 141346Z 28004KT 26/21 A3008 RMK A01 T02640211  RH  073%=      5-min Rain = 0
KME1 141347Z 28005KT 26/21 A3008 RMK A01 T02640207  RH  071%=      5-min Rain = 0
KME1 141348Z 27004KT 27/21 A3008 RMK A01 T02650207  RH  070%=      5-min Rain = 0
KME1 141349Z 24003KT 27/21 A3008 RMK A01 T02660209  RH  071%=      5-min Rain = 0
KME1 141350Z 24002KT 27/21 A3008 RMK A01 T02670211  RH  071%=      5-min Rain = 0
KME1 141351Z 27003KT 27/21 A3008 RMK A01 T02670208  RH  070%=      5-min Rain = 0
KME1 141352Z 27002KT 27/21 A3008 RMK A01 T02680206  RH  069%=      5-min Rain = 0
KME1 141353Z 28004KT 27/21 A3008 RMK A01 T02690206  RH  069%=      5-min Rain = 0
KME1 141354Z 30002KT 27/21 A3008 RMK A01 T02700206  RH  068%=      5-min Rain = 0
KME1 141355Z 31004KT 27/21 A3008 RMK A01 T02700208  RH  069%=      5-min Rain = 0
KME1 141356Z 29005KT 27/21 A3008 RMK A01 T02710208  RH  068%=      5-min Rain = 0
KME1 141357Z 29004KT 27/21 A3008 RMK A01 T02730209  RH  068%=      5-min Rain = 0
KME1 141358Z 28004KT 27/21 A3008 RMK A01 T02740209  RH  068%=      5-min Rain = 0
KME1 141359Z 28004KT 28/21 A3008 RMK A01 T02750207  RH  067%=      5-min Rain = 0
KME1 141400Z 28006KT 28/21 A3008 RMK A01 T02750207  RH  066%=      5-min Rain = 0
KME1 141401Z 28005KT 28/21 A3008 RMK A01 T02750205  RH  066%=      5-min Rain = 0
KME1 141402Z 28005KT 28/21 A3008 RMK A01 T02750205  RH  066%=      5-min Rain = 0
KME1 141403Z 28005KT 28/21 A3008 RMK A01 T02750206  RH  066%=      5-min Rain = 0
KME1 141404Z 28005KT 28/21 A3008 RMK A01 T02760205  RH  065%=      5-min Rain = 0
KME1 141405Z 29008KT 28/21 A3008 RMK A01 T02760205  RH  065%=      5-min Rain = 0
KME1 141406Z 29006KT 28/21 A3008 RMK A01 T02760205  RH  065%=      5-min Rain = 0
KME1 141407Z 29006KT 28/21 A3008 RMK A01 T02760205  RH  065%=      5-min Rain = 0
KME1 141408Z 28006KT 28/21 A3008 RMK A01 T02750205  RH  065%=      5-min Rain = 0
KME1 141409Z 28006KT 28/20 A3008 RMK A01 T02760204  RH  065%=      5-min Rain = 0
KME1 141410Z 28006KT 28/21 A3008 RMK A01 T02760205  RH  065%=      5-min Rain = 0
KME1 141411Z 27005KT 28/21 A3008 RMK A01 T02770206  RH  065%=      5-min Rain = 0
KME1 141412Z 25004KT 28/21 A3008 RMK A01 T02790206  RH  065%=      5-min Rain = 0
KME1 141413Z 27005KT 28/21 A3008 RMK A01 T02800206  RH  064%=      5-min Rain = 0
KME1 141414Z 29004KT 28/21 A3009 RMK A01 T02800206  RH  064%=      5-min Rain = 0
KME1 141415Z 30006KT 28/21 A3009 RMK A01 T02820206  RH  064%=      5-min Rain = 0
KME1 141416Z 31007KT 28/20 A3009 RMK A01 T02820204  RH  063%=      5-min Rain = 0
KME1 141417Z 31006KT 28/21 A3009 RMK A01 T02820205  RH  063%=      5-min Rain = 0
KME1 141418Z 31005KT 28/20 A3009 RMK A01 T02820203  RH  062%=      5-min Rain = 0
KME1 141419Z 29004KT 28/20 A3009 RMK A01 T02820203  RH  062%=      5-min Rain = 0
KME1 141420Z 29006KT 28/20 A3009 RMK A01 T02820204  RH  063%=      5-min Rain = 0
KME1 141421Z 29005KT 28/20 A3009 RMK A01 T02820203  RH  062%=      5-min Rain = 0
KME1 141422Z 30005KT 28/20 A3009 RMK A01 T02830203  RH  062%=      5-min Rain = 0
KME1 141423Z 30005KT 28/20 A3009 RMK A01 T02830202  RH  062%=      5-min Rain = 0
KME1 141424Z 30005KT 28/20 A3009 RMK A01 T02830204  RH  062%=      5-min Rain = 0
KME1 141425Z 28004KT 28/20 A3009 RMK A01 T02830204  RH  062%=      5-min Rain = 0
KME1 141426Z 25006KT 29/21 A3009 RMK A01 T02850207  RH  063%=      5-min Rain = 0
KME1 141427Z 25006KT 29/21 A3009 RMK A01 T02860206  RH  062%=      5-min Rain = 0
KME1 141428Z 25005KT 29/21 A3009 RMK A01 T02860206  RH  062%=      5-min Rain = 0
KME1 141429Z 25004KT 29/21 A3008 RMK A01 T02860205  RH  061%=      5-min Rain = 0
KME1 141430Z 26006KT 29/21 A3008 RMK A01 T02860206  RH  062%=      5-min Rain = 0
KME1 141431Z 26005KT 29/21 A3008 RMK A01 T02860206  RH  062%=      5-min Rain = 0
KME1 141432Z 27004KT 29/21 A3008 RMK A01 T02870205  RH  061%=      5-min Rain = 0
KME1 141433Z 26005KT 29/21 A3008 RMK A01 T02880205  RH  061%=      5-min Rain = 0
KME1 141434Z 26005KT 29/21 A3008 RMK A01 T02890206  RH  061%=      5-min Rain = 0
KME1 141435Z 26006KT 29/21 A3008 RMK A01 T02890206  RH  061%=      5-min Rain = 0
KME1 141436Z 27005KT 29/21 A3008 RMK A01 T02900206  RH  060%=      5-min Rain = 0
KME1 141437Z 27006KT 29/21 A3008 RMK A01 T02910206  RH  060%=      5-min Rain = 0
KME1 141438Z 28006KT 29/21 A3008 RMK A01 T02920205  RH  059%=      5-min Rain = 0
KME1 141439Z 26006KT 29/21 A3008 RMK A01 T02920205  RH  059%=      5-min Rain = 0
KME1 141440Z 24005KT 29/20 A3008 RMK A01 T02920203  RH  059%=      5-min Rain = 0
KME1 141441Z 23006KT 29/21 A3009 RMK A01 T02920205  RH  060%=      5-min Rain = 0
KME1 141442Z 23006KT 29/21 A3009 RMK A01 T02930205  RH  059%=      5-min Rain = 0
KME1 141443Z 24007KT 29/20 A3009 RMK A01 T02940204  RH  058%=      5-min Rain = 0
KME1 141444Z 23007KT 29/20 A3009 RMK A01 T02940204  RH  058%=      5-min Rain = 0
KME1 141445Z 25005KT 30/20 A3009 RMK A01 T02950203  RH  058%=      5-min Rain = 0
KME1 141446Z 25006KT 30/20 A3009 RMK A01 T02960200  RH  057%=      5-min Rain = 0
KME1 141447Z 24007KT 30/20 A3009 RMK A01 T02960202  RH  057%=      5-min Rain = 0
KME1 141448Z 25009KT 30/20 A3009 RMK A01 T02960202  RH  057%=      5-min Rain = 0
KME1 141449Z 25007KT 30/20 A3009 RMK A01 T02960199  RH  056%=      5-min Rain = 0
KME1 141450Z 25006KT 30/20 A3009 RMK A01 T02950200  RH  057%=      5-min Rain = 0
KME1 141451Z 25004KT 30/20 A3009 RMK A01 T02950198  RH  056%=      5-min Rain = 0
KME1 141452Z 24005KT 30/20 A3009 RMK A01 T02950200  RH  057%=      5-min Rain = 0
KME1 141453Z 29005KT 30/20 A3009 RMK A01 T02960203  RH  057%=      5-min Rain = 0
KME1 141454Z 31006KT 30/20 A3009 RMK A01 T02980203  RH  057%=      5-min Rain = 0
KME1 141455Z 31008KT 30/20 A3009 RMK A01 T02990202  RH  056%=      5-min Rain = 0
KME1 141456Z 31007KT 30/20 A3009 RMK A01 T02980202  RH  056%=      5-min Rain = 0
KME1 141457Z 31007KT 30/20 A301 RMK A01 T02970202  RH  057%=      5-min Rain = 0
KME1 141458Z 31008KT 30/20 A301 RMK A01 T02970202  RH  057%=      5-min Rain = 0
KME1 141459Z 31007KT 30/20 A301 RMK A01 T02970201  RH  056%=      5-min Rain = 0
KME1 141500Z 29007KT 30/20 A301 RMK A01 T02960202  RH  057%=      5-min Rain = 0
KME1 141501Z 29005KT 30/20 A301 RMK A01 T02960202  RH  057%=      5-min Rain = 0
KME1 141502Z 28005KT 30/20 A301 RMK A01 T02960203  RH  057%=      5-min Rain = 0
KME1 141503Z 27006KT 30/20 A301 RMK A01 T02970202  RH  057%=      5-min Rain = 0
KME1 141504Z 27006KT 30/20 A301 RMK A01 T02970201  RH  056%=      5-min Rain = 0
KME1 141505Z 31007KT 30/20 A301 RMK A01 T02980202  RH  057%=      5-min Rain = 0
KME1 141506Z 30007KT 30/20 A301 RMK A01 T02990201  RH  056%=      5-min Rain = 0
KME1 141507Z 29006KT 30/20 A301 RMK A01 T02990200  RH  055%=      5-min Rain = 0
KME1 141508Z 30006KT 30/20 A3011 RMK A01 T02990200  RH  055%=      5-min Rain = 0
KME1 141509Z 30003KT 30/20 A3011 RMK A01 T02990200  RH  055%=      5-min Rain = 0
KME1 141510Z 30004KT 30/20 A3011 RMK A01 T02990202  RH  056%=      5-min Rain = 0
KME1 141511Z 34003KT 30/20 A3011 RMK A01 T02990203  RH  056%=      5-min Rain = 0
KME1 141512Z 31007KT 30/20 A3011 RMK A01 T03000204  RH  056%=      5-min Rain = 0
KME1 141513Z 30006KT 30/20 A3011 RMK A01 T03000200  RH  055%=      5-min Rain = 0
KME1 141514Z 29005KT 30/20 A3011 RMK A01 T02990200  RH  056%=      5-min Rain = 0
KME1 141515Z 27005KT 30/20 A3011 RMK A01 T02970199  RH  055%=      5-min Rain = 0
KME1 141516Z 27006KT 30/20 A3011 RMK A01 T02960200  RH  056%=      5-min Rain = 0
KME1 141517Z 28004KT 30/20 A3011 RMK A01 T02960200  RH  057%=      5-min Rain = 0
KME1 141518Z 31004KT 30/20 A3011 RMK A01 T02960202  RH  057%=      5-min Rain = 0
KME1 141519Z 31004KT 30/20 A3011 RMK A01 T02960203  RH  057%=      5-min Rain = 0
KME1 141520Z 33006KT 30/20 A3011 RMK A01 T02970204  RH  057%=      5-min Rain = 0
KME1 141521Z 34007KT 30/20 A3011 RMK A01 T02980202  RH  057%=      5-min Rain = 0
KME1 141522Z 33007KT 30/20 A3011 RMK A01 T02980203  RH  057%=      5-min Rain = 0
KME1 141523Z 32005KT 30/20 A3011 RMK A01 T02970203  RH  057%=      5-min Rain = 0
KME1 141524Z 35005KT 30/20 A3011 RMK A01 T02970203  RH  057%=      5-min Rain = 0
KME1 141525Z 34006KT 30/20 A3011 RMK A01 T02970202  RH  057%=      5-min Rain = 0
KME1 141526Z 33007KT 30/20 A3011 RMK A01 T02970202  RH  057%=      5-min Rain = 0
KME1 141527Z 35005KT 30/20 A3011 RMK A01 T02970201  RH  056%=      5-min Rain = 0
KME1 141528Z 34006KT 30/20 A3012 RMK A01 T02960200  RH  057%=      5-min Rain = 0
KME1 141529Z 36007KT 30/20 A3012 RMK A01 T02950203  RH  057%=      5-min Rain = 0
KME1 141530Z 35006KT 30/20 A3012 RMK A01 T02950202  RH  057%=      5-min Rain = 0
KME1 141531Z 34005KT 30/20 A3012 RMK A01 T02960202  RH  057%=      5-min Rain = 0
KME1 141532Z 32005KT 30/20 A3012 RMK A01 T02950202  RH  057%=      5-min Rain = 0
KME1 141533Z 31006KT 30/20 A3012 RMK A01 T02960201  RH  057%=      5-min Rain = 0
KME1 141534Z 31005KT 30/20 A3012 RMK A01 T02970200  RH  056%=      5-min Rain = 0
KME1 141535Z 32005KT 30/20 A3012 RMK A01 T02970202  RH  057%=      5-min Rain = 0
KME1 141536Z 32006KT 30/20 A3012 RMK A01 T02970202  RH  057%=      5-min Rain = 0
KME1 141537Z 33004KT 30/20 A3012 RMK A01 T02970201  RH  056%=      5-min Rain = 0
KME1 141538Z 34003KT 30/20 A3012 RMK A01 T02970200  RH  056%=      5-min Rain = 0
KME1 141539Z 33003KT 30/20 A3012 RMK A01 T02970199  RH  056%=      5-min Rain = 0
KME1 141540Z 34004KT 30/20 A3012 RMK A01 T02970200  RH  056%=      5-min Rain = 0
KME1 141541Z 33004KT 30/20 A3012 RMK A01 T02970201  RH  056%=      5-min Rain = 0
KME1 141542Z 35006KT 30/20 A3012 RMK A01 T02980202  RH  056%=      5-min Rain = 0
KME1 141543Z 01005KT 30/21 A3012 RMK A01 T02990205  RH  057%=      5-min Rain = 0
KME1 141544Z 01006KT 30/21 A3012 RMK A01 T03010206  RH  057%=      5-min Rain = 0
KME1 141545Z 36008KT 30/20 A3012 RMK A01 T03030204  RH  056%=      5-min Rain = 0
KME1 141546Z 34009KT 30/20 A3012 RMK A01 T03040202  RH  055%=      5-min Rain = 0
KME1 141547Z 34009KT 30/20 A3012 RMK A01 T03040202  RH  054%=      5-min Rain = 0
KME1 141548Z 34006KT 30/20 A3012 RMK A01 T03020200  RH  054%=      5-min Rain = 0
KME1 141549Z 34005KT 30/20 A3012 RMK A01 T03010202  RH  055%=      5-min Rain = 0
KME1 141550Z 00009KT 31/20 A3012 RMK A01 T03050204  RH  055%=      5-min Rain = 0
KME1 141551Z 34006KT 31/20 A3012 RMK A01 T03100204  RH  053%=      5-min Rain = 0
KME1 141552Z 36005KT 31/20 A3012 RMK A01 T03120204  RH  053%=      5-min Rain = 0
KME1 141553Z 35006KT 31/20 A3012 RMK A01 T03140204  RH  052%=      5-min Rain = 0
KME1 141554Z 35006KT 32/20 A3012 RMK A01 T03170198  RH  050%=      5-min Rain = 0
KME1 141555Z 34006KT 32/20 A3012 RMK A01 T03170197  RH  049%=      5-min Rain = 0
KME1 141556Z 34005KT 32/20 A3012 RMK A01 T03160197  RH  049%=      5-min Rain = 0
KME1 141557Z 34007KT 32/20 A3012 RMK A01 T03150199  RH  050%=      5-min Rain = 0
KME1 141558Z 34008KT 32/20 A3012 RMK A01 T03160199  RH  050%=      5-min Rain = 0
KME1 141559Z 34004KT 32/20 A3012 RMK A01 T03170197  RH  049%=      5-min Rain = 0
KME1 141600Z 00007KT 32/20 A3012 RMK A01 T03170199  RH  050%=      5-min Rain = 0
KME1 141601Z 00009KT 32/20 A3012 RMK A01 T03180199  RH  049%=      5-min Rain = 0
KME1 141602Z 36007KT 32/20 A3012 RMK A01 T03200197  RH  048%=      5-min Rain = 0
KME1 141603Z 36006KT 32/20 A3012 RMK A01 T03180196  RH  049%=      5-min Rain = 0
KME1 141604Z 00007KT 32/20 A3012 RMK A01 T03170198  RH  049%=      5-min Rain = 0
KME1 141605Z 35008KT 32/20 A3012 RMK A01 T03180198  RH  049%=      5-min Rain = 0
KME1 141606Z 01006KT 32/20 A3012 RMK A01 T03190196  RH  048%=      5-min Rain = 0
KME1 141607Z 36003KT 32/20 A3012 RMK A01 T03180197  RH  049%=      5-min Rain = 0
KME1 141608Z 35005KT 32/20 A3012 RMK A01 T03180197  RH  049%=      5-min Rain = 0
KME1 141609Z 34009KT 32/20 A3012 RMK A01 T03200198  RH  049%=      5-min Rain = 0
KME1 141610Z 35008KT 32/20 A3012 RMK A01 T03220198  RH  048%=      5-min Rain = 0
KME1 141611Z 00009KT 32/20 A3012 RMK A01 T03230199  RH  048%=      5-min Rain = 0
KME1 141612Z 36005KT 33/20 A3012 RMK A01 T03250199  RH  048%=      5-min Rain = 0
KME1 141613Z 01008KT 33/20 A3012 RMK A01 T03250198  RH  047%=      5-min Rain = 0
KME1 141614Z 35006KT 32/20 A3012 RMK A01 T03240196  RH  047%=      5-min Rain = 0
KME1 141615Z 36004KT 32/20 A3012 RMK A01 T03240195  RH  047%=      5-min Rain = 0
KME1 141616Z 01007KT 32/20 A3012 RMK A01 T03240198  RH  047%=      5-min Rain = 0
KME1 141617Z 03007KT 32/20 A3012 RMK A01 T03240197  RH  047%=      5-min Rain = 0
KME1 141618Z 02007KT 32/20 A3012 RMK A01 T03240197  RH  047%=      5-min Rain = 0
KME1 141619Z 00009KT 33/20 A3012 RMK A01 T03250196  RH  046%=      5-min Rain = 0
KME1 141620Z 01009KT 33/19 A3012 RMK A01 T03270193  RH  045%=      5-min Rain = 0
KME1 141621Z 01008KT 33/19 A3012 RMK A01 T03250192  RH  045%=      5-min Rain = 0
KME1 141622Z 36008KT 32/19 A3012 RMK A01 T03240194  RH  046%=      5-min Rain = 0
KME1 141623Z 35008KT 32/20 A3012 RMK A01 T03240196  RH  047%=      5-min Rain = 0
KME1 141624Z 34009KT 33/19 A3013 RMK A01 T03260193  RH  046%=      5-min Rain = 0
KME1 141625Z 36009KT 32/19 A3012 RMK A01 T03240193  RH  046%=      5-min Rain = 0
KME1 141626Z 35008KT 32/20 A3012 RMK A01 T03230197  RH  047%=      5-min Rain = 0
KME1 141627Z 36011KT 33/20 A3012 RMK A01 T03250196  RH  047%=      5-min Rain = 0
KME1 141628Z 35009KT 33/20 A3012 RMK A01 T03250196  RH  047%=      5-min Rain = 0
KME1 141629Z 34008KT 33/20 A3012 RMK A01 T03260195  RH  046%=      5-min Rain = 0
KME1 141630Z 35009KT 33/20 A3012 RMK A01 T03260196  RH  046%=      5-min Rain = 0
KME1 141631Z 36007KT 33/19 A3012 RMK A01 T03260193  RH  045%=      5-min Rain = 0
KME1 141632Z 35009KT 33/19 A3012 RMK A01 T03270194  RH  045%=      5-min Rain = 0
KME1 141633Z 35008KT 33/19 A3012 RMK A01 T03290192  RH  044%=      5-min Rain = 0
KME1 141634Z 35007KT 33/19 A3012 RMK A01 T03280194  RH  045%=      5-min Rain = 0
KME1 141635Z 35008KT 33/19 A3012 RMK A01 T03290193  RH  045%=      5-min Rain = 0
KME1 141636Z 34006KT 33/19 A3012 RMK A01 T03290194  RH  045%=      5-min Rain = 0
KME1 141637Z 32007KT 33/20 A3012 RMK A01 T03290195  RH  045%=      5-min Rain = 0
KME1 141638Z 32007KT 33/20 A3012 RMK A01 T03290198  RH  046%=      5-min Rain = 0
KME1 141639Z 35008KT 33/20 A3012 RMK A01 T03300196  RH  045%=      5-min Rain = 0
KME1 141640Z 35008KT 33/20 A3012 RMK A01 T03290198  RH  046%=      5-min Rain = 0
KME1 141641Z 35009KT 33/20 A3012 RMK A01 T03300199  RH  046%=      5-min Rain = 0
KME1 141642Z 36008KT 33/20 A3012 RMK A01 T03330199  RH  046%=      5-min Rain = 0
KME1 141643Z 34007KT 33/20 A3012 RMK A01 T03320200  RH  046%=      5-min Rain = 0
KME1 141644Z 34006KT 33/20 A3012 RMK A01 T03310200  RH  046%=      5-min Rain = 0
KME1 141645Z 33007KT 33/20 A3012 RMK A01 T03310200  RH  046%=      5-min Rain = 0
KME1 141646Z 35005KT 33/20 A3012 RMK A01 T03310201  RH  046%=      5-min Rain = 0
KME1 141647Z 00007KT 33/20 A3012 RMK A01 T03330203  RH  047%=      5-min Rain = 0
KME1 141648Z 33009G14KT 34/20 A3012 RMK A01 T03360201  RH  045%=      5-min Rain = 0
KME1 141649Z 32007KT 33/20 A3012 RMK A01 T03340198  RH  045%=      5-min Rain = 0
KME1 141650Z 36008KT 33/20 A3012 RMK A01 T03320201  RH  046%=      5-min Rain = 0
KME1 141651Z 02009KT 33/21 A3012 RMK A01 T03320205  RH  047%=      5-min Rain = 0
KME1 141652Z 00008KT 33/21 A3012 RMK A01 T03320205  RH  047%=      5-min Rain = 0
KME1 141653Z 34009KT 33/21 A3012 RMK A01 T03330205  RH  047%=      5-min Rain = 0
KME1 141654Z 01007KT 33/21 A3012 RMK A01 T03330206  RH  047%=      5-min Rain = 0
KME1 141655Z 00007G12KT 33/21 A3012 RMK A01 T03340206  RH  047%=      5-min Rain = 0
KME1 141656Z 01010KT 34/21 A3012 RMK A01 T03360205  RH  046%=      5-min Rain = 0
KME1 141657Z 36008KT 34/21 A3012 RMK A01 T03360206  RH  046%=      5-min Rain = 0
KME1 141658Z 36010KT 34/21 A3012 RMK A01 T03370205  RH  046%=      5-min Rain = 0
KME1 141659Z 00007KT 34/20 A3012 RMK A01 T03370202  RH  045%=      5-min Rain = 0
KME1 141700Z 01008KT 34/20 A3012 RMK A01 T03350201  RH  045%=      5-min Rain = 0
KME1 141701Z 35008KT 33/20 A3012 RMK A01 T03340203  RH  046%=      5-min Rain = 0
KME1 141702Z 35006KT 33/20 A3012 RMK A01 T03330202  RH  046%=      5-min Rain = 0
KME1 141703Z 01006KT 33/21 A3012 RMK A01 T03330206  RH  047%=      5-min Rain = 0
KME1 141704Z 01009KT 34/21 A3012 RMK A01 T03360205  RH  046%=      5-min Rain = 0
KME1 141705Z 02009KT 34/20 A3012 RMK A01 T03360201  RH  045%=      5-min Rain = 0
KME1 141706Z 02009KT 34/20 A3011 RMK A01 T03350200  RH  045%=      5-min Rain = 0
KME1 141707Z 01009KT 33/20 A3012 RMK A01 T03340201  RH  046%=      5-min Rain = 0
KME1 141708Z 03009KT 33/20 A3012 RMK A01 T03340201  RH  046%=      5-min Rain = 0
KME1 141709Z 01009KT 34/20 A3012 RMK A01 T03350201  RH  045%=      5-min Rain = 0
KME1 141710Z 35008KT 34/20 A3012 RMK A01 T03370203  RH  046%=      5-min Rain = 0
KME1 141711Z 33009KT 34/20 A3011 RMK A01 T03380202  RH  045%=      5-min Rain = 0
KME1 141712Z 35006G11KT 34/20 A3011 RMK A01 T03370202  RH  045%=      5-min Rain = 0
KME1 141713Z 00010KT 34/20 A3012 RMK A01 T03360203  RH  046%=      5-min Rain = 0
KME1 141714Z 01007KT 34/20 A3011 RMK A01 T03350200  RH  045%=      5-min Rain = 0
KME1 141715Z 03007KT 33/20 A3011 RMK A01 T03330201  RH  046%=      5-min Rain = 0
KME1 141716Z 02006KT 33/20 A3011 RMK A01 T03300202  RH  047%=      5-min Rain = 0
KME1 141717Z 01004KT 33/20 A3011 RMK A01 T03280202  RH  047%=      5-min Rain = 0
KME1 141718Z 00008KT 33/20 A3011 RMK A01 T03280204  RH  048%=      5-min Rain = 0
KME1 141719Z 00004KT 33/20 A3011 RMK A01 T03280203  RH  048%=      5-min Rain = 0
KME1 141720Z 03005KT 33/20 A3011 RMK A01 T03250202  RH  048%=      5-min Rain = 0
KME1 141721Z 04003KT 32/20 A3011 RMK A01 T03220203  RH  049%=      5-min Rain = 0
KME1 141722Z 02005KT 32/21 A3011 RMK A01 T03210205  RH  050%=      5-min Rain = 0
KME1 141723Z 35009KT 32/21 A3011 RMK A01 T03240206  RH  050%=      5-min Rain = 0
KME1 141724Z 35012KT 33/21 A3011 RMK A01 T03270207  RH  049%=      5-min Rain = 0
KME1 141725Z 34008KT 33/21 A3011 RMK A01 T03280206  RH  049%=      5-min Rain = 0
KME1 141726Z 36007KT 33/21 A3011 RMK A01 T03260206  RH  049%=      5-min Rain = 0
KME1 141727Z 01006KT 33/21 A3011 RMK A01 T03250206  RH  049%=      5-min Rain = 0
KME1 141728Z 00004KT 32/21 A3011 RMK A01 T03240205  RH  050%=      5-min Rain = 0
KME1 141729Z 02006KT 32/20 A3011 RMK A01 T03220204  RH  050%=      5-min Rain = 0
KME1 141730Z 02008KT 32/20 A3011 RMK A01 T03200204  RH  050%=      5-min Rain = 0
KME1 141731Z 01006KT 32/20 A3011 RMK A01 T03180202  RH  050%=      5-min Rain = 0
KME1 141732Z 01004KT 32/20 A3011 RMK A01 T03170203  RH  051%=      5-min Rain = 0
KME1 141733Z 00005KT 32/20 A3011 RMK A01 T03170204  RH  051%=      5-min Rain = 0
KME1 141734Z 34003KT 32/21 A3011 RMK A01 T03170205  RH  051%=      5-min Rain = 0
KME1 141735Z 36007KT 32/21 A3011 RMK A01 T03190205  RH  051%=      5-min Rain = 0
KME1 141736Z 00008KT 32/21 A3011 RMK A01 T03200205  RH  050%=      5-min Rain = 0
KME1 141737Z 00006KT 32/20 A3011 RMK A01 T03210204  RH  050%=      5-min Rain = 0
KME1 141738Z 33005KT 32/20 A3011 RMK A01 T03230204  RH  050%=      5-min Rain = 0
KME1 141739Z 34008KT 33/20 A3011 RMK A01 T03280203  RH  048%=      5-min Rain = 0
KME1 141740Z 00008KT 33/20 A3011 RMK A01 T03330203  RH  047%=      5-min Rain = 0
KME1 141741Z 36008KT 34/20 A3011 RMK A01 T03370202  RH  045%=      5-min Rain = 0
KME1 141742Z 34008KT 34/20 A3011 RMK A01 T03390199  RH  044%=      5-min Rain = 0
KME1 141743Z 34009KT 34/20 A3011 RMK A01 T03410199  RH  043%=      5-min Rain = 0
KME1 141744Z 33008KT 34/20 A3011 RMK A01 T03420198  RH  043%=      5-min Rain = 0
KME1 141745Z 35005KT 34/20 A301 RMK A01 T03420196  RH  042%=      5-min Rain = 0
KME1 141746Z 35005KT 34/20 A301 RMK A01 T03400198  RH  043%=      5-min Rain = 0
KME1 141747Z 34007KT 34/20 A301 RMK A01 T03390202  RH  045%=      5-min Rain = 0
KME1 141748Z 01008KT 34/21 A301 RMK A01 T03430207  RH  045%=      5-min Rain = 0
KME1 141749Z 36011KT 35/21 A301 RMK A01 T03450205  RH  044%=      5-min Rain = 0
KME1 141750Z 00010KT 35/21 A3011 RMK A01 T03470205  RH  044%=      5-min Rain = 0
KME1 141751Z 02005KT 35/20 A301 RMK A01 T03480204  RH  043%=      5-min Rain = 0
KME1 141752Z 05004KT 35/21 A301 RMK A01 T03460205  RH  044%=      5-min Rain = 0
KME1 141753Z 06005KT 35/21 A301 RMK A01 T03450207  RH  045%=      5-min Rain = 0
KME1 141754Z 07005KT 34/21 A301 RMK A01 T03440205  RH  044%=      5-min Rain = 0
KME1 141755Z 34008KT 34/21 A301 RMK A01 T03430205  RH  045%=      5-min Rain = 0
KME1 141756Z 36011KT 35/20 A301 RMK A01 T03450204  RH  044%=      5-min Rain = 0
KME1 141757Z 00010KT 35/20 A301 RMK A01 T03460204  RH  043%=      5-min Rain = 0
KME1 141758Z 34009KT 35/20 A301 RMK A01 T03470204  RH  043%=      5-min Rain = 0
KME1 141759Z 33006KT 35/20 A301 RMK A01 T03460203  RH  043%=      5-min Rain = 0
KME1 141800Z 34003KT 34/20 A301 RMK A01 T03440203  RH  043%=      5-min Rain = 0
KME1 141801Z 35004KT 34/20 A301 RMK A01 T03440201  RH  043%=      5-min Rain = 0
KME1 141802Z 34006KT 34/20 A3011 RMK A01 T03440204  RH  044%=      5-min Rain = 0
KME1 141803Z 31005KT 35/20 A301 RMK A01 T03450201  RH  043%=      5-min Rain = 0
KME1 141804Z 29005KT 35/20 A301 RMK A01 T03450202  RH  043%=      5-min Rain = 0
KME1 141805Z 31002KT 34/20 A301 RMK A01 T03440202  RH  044%=      5-min Rain = 0
KME1 141806Z 03005KT 34/21 A301 RMK A01 T03430205  RH  044%=      5-min Rain = 0
KME1 141807Z 05004KT 35/20 A301 RMK A01 T03460202  RH  043%=      5-min Rain = 0
KME1 141808Z 04007KT 35/21 A301 RMK A01 T03460205  RH  044%=      5-min Rain = 0
KME1 141809Z 02009KT 35/21 A301 RMK A01 T03500205  RH  043%=      5-min Rain = 0
KME1 141810Z 02007KT 35/20 A301 RMK A01 T03520201  RH  041%=      5-min Rain = 0
KME1 141811Z 03005KT 35/20 A301 RMK A01 T03470198  RH  042%=      5-min Rain = 0
KME1 141812Z 04005KT 34/20 A301 RMK A01 T03440200  RH  043%=      5-min Rain = 0
KME1 141813Z 35005KT 34/20 A301 RMK A01 T03440204  RH  044%=      5-min Rain = 0
KME1 141814Z 36005KT 35/21 A301 RMK A01 T03510208  RH  043%=      5-min Rain = 0
KME1 141815Z 35007KT 36/21 A301 RMK A01 T03580209  RH  042%=      5-min Rain = 0
KME1 141816Z 35007KT 36/21 A301 RMK A01 T03610207  RH  041%=      5-min Rain = 0
KME1 141817Z 01006KT 36/20 A301 RMK A01 T03630204  RH  040%=      5-min Rain = 0
KME1 141818Z 00008KT 36/20 A301 RMK A01 T03610203  RH  040%=      5-min Rain = 0
KME1 141819Z 35009KT 36/20 A301 RMK A01 T03580201  RH  040%=      5-min Rain = 0
KME1 141820Z 36008KT 36/20 A301 RMK A01 T03560201  RH  040%=      5-min Rain = 0
KME1 141821Z 04003KT 35/20 A301 RMK A01 T03540200  RH  041%=      5-min Rain = 0
KME1 141822Z 11002KT 35/20 A3009 RMK A01 T03490200  RH  042%=      5-min Rain = 0
KME1 141823Z 08001KT 35/20 A3009 RMK A01 T03470198  RH  042%=      5-min Rain = 0
KME1 141824Z 35005KT 35/20 A3009 RMK A01 T03470199  RH  042%=      5-min Rain = 0
KME1 141825Z 03006KT 35/20 A3009 RMK A01 T03460201  RH  043%=      5-min Rain = 0
KME1 141826Z 01011KT 35/20 A301 RMK A01 T03500204  RH  042%=      5-min Rain = 0
KME1 141827Z 01011KT 35/20 A301 RMK A01 T03540201  RH  041%=      5-min Rain = 0
KME1 141828Z 02009KT 36/20 A301 RMK A01 T03550198  RH  040%=      5-min Rain = 0
KME1 141829Z 04005KT 35/20 A3009 RMK A01 T03530198  RH  040%=      5-min Rain = 0
KME1 141830Z 03006KT 35/20 A3009 RMK A01 T03510196  RH  040%=      5-min Rain = 0
KME1 141831Z 03006KT 35/20 A3009 RMK A01 T03490198  RH  041%=      5-min Rain = 0
KME1 141832Z 02006KT 35/20 A3009 RMK A01 T03490200  RH  042%=      5-min Rain = 0
KME1 141833Z 36004KT 35/20 A3009 RMK A01 T03510200  RH  041%=      5-min Rain = 0
KME1 141834Z 35008G14KT 35/20 A3009 RMK A01 T03530203  RH  042%=      5-min Rain = 0
KME1 141835Z 00012KT 36/21 A3009 RMK A01 T03550205  RH  042%=      5-min Rain = 0
KME1 141836Z 00009KT 35/21 A3009 RMK A01 T03530205  RH  042%=      5-min Rain = 0
KME1 141837Z 36009KT 35/20 A3009 RMK A01 T03520204  RH  042%=      5-min Rain = 0
KME1 141838Z 36007KT 35/21 A3009 RMK A01 T03510205  RH  043%=      5-min Rain = 0
KME1 141839Z 36008G17KT 35/21 A3009 RMK A01 T03510206  RH  043%=      5-min Rain = 0
KME1 141840Z 01012KT 35/21 A3009 RMK A01 T03520207  RH  043%=      5-min Rain = 0
KME1 141841Z 35012KT 36/21 A3009 RMK A01 T03550205  RH  042%=      5-min Rain = 0
KME1 141842Z 35010KT 35/20 A3009 RMK A01 T03540203  RH  041%=      5-min Rain = 0
KME1 141843Z 35009KT 35/20 A3009 RMK A01 T03510202  RH  042%=      5-min Rain = 0
KME1 141844Z 00009KT 35/20 A3009 RMK A01 T03490203  RH  042%=      5-min Rain = 0
KME1 141845Z 01008KT 35/20 A3009 RMK A01 T03490203  RH  043%=      5-min Rain = 0
KME1 141846Z 01010KT 35/20 A3009 RMK A01 T03460204  RH  044%=      5-min Rain = 0
KME1 141847Z 36006KT 35/20 A3008 RMK A01 T03450204  RH  044%=      5-min Rain = 0
KME1 141848Z 34009KT 35/21 A3008 RMK A01 T03460206  RH  044%=      5-min Rain = 0
KME1 141849Z 35007KT 35/21 A3008 RMK A01 T03480205  RH  043%=      5-min Rain = 0
KME1 141850Z 36006KT 35/21 A3008 RMK A01 T03470206  RH  044%=      5-min Rain = 0
KME1 141851Z 03009G14KT 35/21 A3008 RMK A01 T03510208  RH  043%=      5-min Rain = 0
KME1 141852Z 00010KT 36/21 A3008 RMK A01 T03550209  RH  043%=      5-min Rain = 0
KME1 141853Z 36007KT 36/21 A3008 RMK A01 T03570206  RH  041%=      5-min Rain = 0
KME1 141854Z 02010KT 35/21 A3008 RMK A01 T03540205  RH  042%=      5-min Rain = 0
KME1 141855Z 01009KT 35/21 A3008 RMK A01 T03530205  RH  042%=      5-min Rain = 0
KME1 141856Z 02010KT 36/21 A3008 RMK A01 T03550206  RH  042%=      5-min Rain = 0
KME1 141857Z 02009KT 36/21 A3008 RMK A01 T03550205  RH  042%=      5-min Rain = 0
KME1 141858Z 02009KT 36/21 A3008 RMK A01 T03560205  RH  041%=      5-min Rain = 0
KME1 141859Z 03005KT 36/20 A3008 RMK A01 T03550200  RH  040%=      5-min Rain = 0
KME1 141900Z 05004KT 35/20 A3008 RMK A01 T03490198  RH  041%=      5-min Rain = 0
KME1 141901Z 08002KT 35/20 A3008 RMK A01 T03460200  RH  043%=      5-min Rain = 0
KME1 141902Z 04004KT 35/20 A3008 RMK A01 T03470200  RH  042%=      5-min Rain = 0
KME1 141903Z 02008G13KT 35/20 A3008 RMK A01 T03460202  RH  043%=      5-min Rain = 0
KME1 141904Z 02007KT 35/20 A3008 RMK A01 T03490202  RH  042%=      5-min Rain = 0
KME1 141905Z 04010KT 35/20 A3008 RMK A01 T03500203  RH  042%=      5-min Rain = 0
KME1 141906Z 03009KT 35/20 A3008 RMK A01 T03520201  RH  041%=      5-min Rain = 0
KME1 141907Z 03006KT 35/20 A3008 RMK A01 T03510202  RH  042%=      5-min Rain = 0
KME1 141908Z 04007KT 36/21 A3008 RMK A01 T03550205  RH  042%=      5-min Rain = 0
KME1 141909Z 05005KT 36/20 A3008 RMK A01 T03580203  RH  041%=      5-min Rain = 0
KME1 141910Z 04007KT 36/20 A3008 RMK A01 T03560203  RH  041%=      5-min Rain = 0
KME1 141911Z 04010G15KT 36/21 A3008 RMK A01 T03560205  RH  041%=      5-min Rain = 0
KME1 141912Z 03012KT 36/21 A3008 RMK A01 T03550206  RH  042%=      5-min Rain = 0
KME1 141913Z 01010KT 36/20 A3008 RMK A01 T03560203  RH  041%=      5-min Rain = 0
KME1 141914Z 01006KT 35/20 A3007 RMK A01 T03540199  RH  040%=      5-min Rain = 0
KME1 141915Z 02006KT 35/20 A3007 RMK A01 T03520202  RH  041%=      5-min Rain = 0
KME1 141916Z 02006G11KT 35/20 A3007 RMK A01 T03540201  RH  041%=      5-min Rain = 0
KME1 141917Z 04010KT 36/20 A3007 RMK A01 T03550202  RH  041%=      5-min Rain = 0
KME1 141918Z 03012KT 36/20 A3007 RMK A01 T03550200  RH  040%=      5-min Rain = 0
KME1 141919Z 04008KT 36/20 A3007 RMK A01 T03560200  RH  040%=      5-min Rain = 0
KME1 141920Z 04006KT 36/20 A3007 RMK A01 T03560199  RH  040%=      5-min Rain = 0
KME1 141921Z 07005KT 36/20 A3006 RMK A01 T03550199  RH  040%=      5-min Rain = 0
KME1 141922Z 12003KT 35/20 A3006 RMK A01 T03500198  RH  041%=      5-min Rain = 0
KME1 141923Z 09002KT 35/20 A3006 RMK A01 T03480198  RH  042%=      5-min Rain = 0
KME1 141924Z 06002G7KT 35/20 A3006 RMK A01 T03480201  RH  042%=      5-min Rain = 0
KME1 141925Z 35010KT 35/20 A3006 RMK A01 T03510202  RH  042%=      5-min Rain = 0
KME1 141926Z 00007KT 36/20 A3006 RMK A01 T03560203  RH  041%=      5-min Rain = 0
KME1 141927Z 00008KT 36/21 A3006 RMK A01 T03590205  RH  041%=      5-min Rain = 0
KME1 141928Z 00008KT 36/21 A3006 RMK A01 T03620206  RH  040%=      5-min Rain = 0
KME1 141929Z 03007KT 37/21 A3006 RMK A01 T03660208  RH  040%=      5-min Rain = 0
KME1 141930Z 04008KT 37/21 A3006 RMK A01 T03680208  RH  040%=      5-min Rain = 0
KME1 141931Z 04006KT 37/21 A3005 RMK A01 T03650206  RH  040%=      5-min Rain = 0
KME1 141932Z 02009KT 36/20 A3005 RMK A01 T03610203  RH  040%=      5-min Rain = 0
KME1 141933Z 03011KT 36/20 A3005 RMK A01 T03620204  RH  040%=      5-min Rain = 0
KME1 141934Z 03009KT 37/21 A3005 RMK A01 T03650209  RH  040%=      5-min Rain = 0
KME1 141935Z 04008KT 37/21 A3005 RMK A01 T03650207  RH  040%=      5-min Rain = 0
KME1 141936Z 06005KT 36/21 A3005 RMK A01 T03600206  RH  041%=      5-min Rain = 0
KME1 141937Z 03010KT 36/20 A3005 RMK A01 T03580203  RH  041%=      5-min Rain = 0
KME1 141938Z 04008KT 36/20 A3005 RMK A01 T03590198  RH  039%=      5-min Rain = 0
KME1 141939Z 05006KT 36/20 A3005 RMK A01 T03580198  RH  039%=      5-min Rain = 0
KME1 141940Z 36005KT 36/20 A3005 RMK A01 T03570199  RH  040%=      5-min Rain = 0
KME1 141941Z 35009KT 36/20 A3005 RMK A01 T03610199  RH  039%=      5-min Rain = 0
KME1 141942Z 01010KT 36/20 A3005 RMK A01 T03640200  RH  039%=      5-min Rain = 0
KME1 141943Z 02011KT 37/20 A3005 RMK A01 T03650201  RH  039%=      5-min Rain = 0
KME1 141944Z 02007KT 37/20 A3005 RMK A01 T03650200  RH  038%=      5-min Rain = 0
KME1 141945Z 02006KT 36/20 A3005 RMK A01 T03630201  RH  039%=      5-min Rain = 0
KME1 141946Z 02006KT 36/20 A3005 RMK A01 T03620201  RH  039%=      5-min Rain = 0
KME1 141947Z 01011KT 36/20 A3005 RMK A01 T03630200  RH  039%=      5-min Rain = 0
KME1 141948Z 03008KT 37/20 A3005 RMK A01 T03650200  RH  038%=      5-min Rain = 0
KME1 141949Z 06011G16KT 37/20 A3005 RMK A01 T03660201  RH  038%=      5-min Rain = 0
KME1 141950Z 05011KT 37/20 A3005 RMK A01 T03660200  RH  038%=      5-min Rain = 0
KME1 141951Z 05013KT 36/20 A3005 RMK A01 T03620201  RH  039%=      5-min Rain = 0
KME1 141952Z 06012KT 36/20 A3005 RMK A01 T03590199  RH  039%=      5-min Rain = 0
KME1 141953Z 06010KT 36/20 A3005 RMK A01 T03570200  RH  040%=      5-min Rain = 0
KME1 141954Z 08009KT 36/20 A3005 RMK A01 T03590202  RH  040%=      5-min Rain = 0
KME1 141955Z 08006KT 36/20 A3005 RMK A01 T03600202  RH  040%=      5-min Rain = 0
KME1 141956Z 05004KT 36/20 A3005 RMK A01 T03600203  RH  040%=      5-min Rain = 0
KME1 141957Z 04006KT 36/20 A3005 RMK A01 T03620202  RH  039%=      5-min Rain = 0
KME1 141958Z 04006KT 36/20 A3005 RMK A01 T03640201  RH  039%=      5-min Rain = 0
KME1 141959Z 05013KT 36/20 A3005 RMK A01 T03630201  RH  039%=      5-min Rain = 0
KME1 142000Z 04009KT 36/20 A3005 RMK A01 T03630201  RH  039%=      5-min Rain = 0
KME1 142001Z 05010KT 37/20 A3005 RMK A01 T03650201  RH  039%=      5-min Rain = 0
KME1 142002Z 04010G15KT 37/20 A3005 RMK A01 T03670203  RH  038%=      5-min Rain = 0
KME1 142003Z 05009KT 37/20 A3005 RMK A01 T03690202  RH  038%=      5-min Rain = 0
KME1 142004Z 07008KT 37/20 A3005 RMK A01 T03680202  RH  038%=      5-min Rain = 0
KME1 142005Z 07008KT 37/20 A3004 RMK A01 T03670203  RH  039%=      5-min Rain = 0
KME1 142006Z 05007KT 37/20 A3004 RMK A01 T03680202  RH  038%=      5-min Rain = 0
KME1 142007Z 05009KT 37/20 A3004 RMK A01 T03690202  RH  038%=      5-min Rain = 0
KME1 142008Z 05009KT 37/20 A3004 RMK A01 T03690201  RH  038%=      5-min Rain = 0
KME1 142009Z 04008KT 37/20 A3004 RMK A01 T03670201  RH  038%=      5-min Rain = 0
KME1 142010Z 01009KT 37/20 A3004 RMK A01 T03690202  RH  038%=      5-min Rain = 0
KME1 142011Z 35007KT 37/20 A3004 RMK A01 T03710201  RH  037%=      5-min Rain = 0
KME1 142012Z 00007KT 37/20 A3004 RMK A01 T03710201  RH  037%=      5-min Rain = 0
KME1 142013Z 06008G13KT 37/20 A3004 RMK A01 T03700202  RH  038%=      5-min Rain = 0
KME1 142014Z 05009KT 36/20 A3004 RMK A01 T03630201  RH  039%=      5-min Rain = 0
KME1 142015Z 05010KT 36/20 A3004 RMK A01 T03610201  RH  039%=      5-min Rain = 0
KME1 142016Z 04011KT 36/20 A3004 RMK A01 T03610202  RH  039%=      5-min Rain = 0
KME1 142017Z 01009KT 36/20 A3004 RMK A01 T03630200  RH  039%=      5-min Rain = 0
KME1 142018Z 04007KT 36/20 A3004 RMK A01 T03640200  RH  038%=      5-min Rain = 0
KME1 142019Z 03008KT 37/20 A3004 RMK A01 T03650200  RH  038%=      5-min Rain = 0
KME1 142020Z 02006KT 36/20 A3004 RMK A01 T03620198  RH  038%=      5-min Rain = 0
KME1 142021Z 05009G16KT 36/20 A3004 RMK A01 T03630200  RH  039%=      5-min Rain = 0
KME1 142022Z 07011KT 37/20 A3004 RMK A01 T03650201  RH  038%=      5-min Rain = 0
KME1 142023Z 06008KT 37/20 A3003 RMK A01 T03650201  RH  038%=      5-min Rain = 0
KME1 142024Z 08007KT 36/20 A3003 RMK A01 T03640201  RH  038%=      5-min Rain = 0
KME1 142025Z 09010KT 37/20 A3003 RMK A01 T03660202  RH  038%=      5-min Rain = 0
KME1 142026Z 09009KT 37/20 A3003 RMK A01 T03660200  RH  038%=      5-min Rain = 0
KME1 142027Z 08005KT 36/20 A3003 RMK A01 T03610198  RH  038%=      5-min Rain = 0
KME1 142028Z 07004KT 36/20 A3003 RMK A01 T03580196  RH  039%=      5-min Rain = 0
KME1 142029Z 06005KT 36/20 A3003 RMK A01 T03590200  RH  040%=      5-min Rain = 0
KME1 142030Z 08011KT 36/20 A3003 RMK A01 T03630203  RH  039%=      5-min Rain = 0
KME1 142031Z 08009KT 37/20 A3003 RMK A01 T03670201  RH  038%=      5-min Rain = 0
KME1 142032Z 09007KT 37/20 A3003 RMK A01 T03650202  RH  039%=      5-min Rain = 0
KME1 142033Z 09004KT 37/20 A3003 RMK A01 T03670204  RH  039%=      5-min Rain = 0
KME1 142034Z 08005KT 37/20 A3003 RMK A01 T03680203  RH  038%=      5-min Rain = 0
KME1 142035Z 09009G14KT 37/20 A3003 RMK A01 T03680204  RH  039%=      5-min Rain = 0
KME1 142036Z 09007KT 37/20 A3003 RMK A01 T03670201  RH  038%=      5-min Rain = 0
KME1 142037Z 09003KT 37/20 A3003 RMK A01 T03650201  RH  039%=      5-min Rain = 0
KME1 142038Z 12007KT 36/20 A3003 RMK A01 T03640201  RH  039%=      5-min Rain = 0
KME1 142039Z 10005KT 36/20 A3003 RMK A01 T03610200  RH  039%=      5-min Rain = 0
KME1 142040Z 10005KT 36/20 A3003 RMK A01 T03570199  RH  040%=      5-min Rain = 0
KME1 142041Z 09007KT 36/20 A3003 RMK A01 T03570202  RH  040%=      5-min Rain = 0
KME1 142042Z 10008KT 36/20 A3003 RMK A01 T03600201  RH  040%=      5-min Rain = 0
KME1 142043Z 11008KT 36/20 A3003 RMK A01 T03610200  RH  039%=      5-min Rain = 0
KME1 142044Z 11008KT 36/20 A3003 RMK A01 T03620200  RH  039%=      5-min Rain = 0
KME1 142045Z 07005KT 36/20 A3003 RMK A01 T03620200  RH  039%=      5-min Rain = 0
KME1 142046Z 07007KT 36/20 A3003 RMK A01 T03620200  RH  039%=      5-min Rain = 0
KME1 142047Z 11006KT 36/20 A3003 RMK A01 T03630202  RH  039%=      5-min Rain = 0
KME1 142048Z 04007KT 36/20 A3003 RMK A01 T03620201  RH  039%=      5-min Rain = 0
KME1 142049Z 03008KT 36/20 A3003 RMK A01 T03600197  RH  039%=      5-min Rain = 0
KME1 142050Z 09007KT 36/20 A3003 RMK A01 T03590202  RH  040%=      5-min Rain = 0
KME1 142051Z 09009KT 36/20 A3003 RMK A01 T03580203  RH  040%=      5-min Rain = 0
KME1 142052Z 09007KT 36/20 A3003 RMK A01 T03550200  RH  040%=      5-min Rain = 0
KME1 142053Z 10004KT 35/20 A3003 RMK A01 T03530200  RH  041%=      5-min Rain = 0
KME1 142054Z 06003KT 35/20 A3003 RMK A01 T03530200  RH  041%=      5-min Rain = 0
KME1 142055Z 08005G13KT 35/20 A3003 RMK A01 T03530200  RH  041%=      5-min Rain = 0
KME1 142056Z 06008KT 35/20 A3003 RMK A01 T03530198  RH  040%=      5-min Rain = 0
KME1 142057Z 06009KT 35/20 A3003 RMK A01 T03510198  RH  041%=      5-min Rain = 0
KME1 142058Z 07007KT 35/20 A3003 RMK A01 T03510199  RH  041%=      5-min Rain = 0
KME1 142059Z 07005KT 35/20 A3003 RMK A01 T03540201  RH  041%=      5-min Rain = 0
KME1 142100Z 06007KT 36/20 A3003 RMK A01 T03550201  RH  041%=      5-min Rain = 0
KME1 142101Z 07005KT 36/20 A3003 RMK A01 T03560199  RH  040%=      5-min Rain = 0
KME1 142102Z 07004KT 36/20 A3003 RMK A01 T03560200  RH  040%=      5-min Rain = 0
KME1 142103Z 04009KT 36/20 A3003 RMK A01 T03560200  RH  040%=      5-min Rain = 0
KME1 142104Z 05005KT 36/20 A3003 RMK A01 T03560196  RH  039%=      5-min Rain = 0
KME1 142105Z 05003KT 36/20 A3003 RMK A01 T03550197  RH  040%=      5-min Rain = 0
KME1 142106Z 09004KT 36/20 A3003 RMK A01 T03550199  RH  040%=      5-min Rain = 0
KME1 142107Z 06007KT 36/20 A3003 RMK A01 T03560198  RH  040%=      5-min Rain = 0
KME1 142108Z 05004KT 36/20 A3002 RMK A01 T03550198  RH  040%=      5-min Rain = 0
KME1 142109Z 03005KT 36/20 A3002 RMK A01 T03550198  RH  040%=      5-min Rain = 0
KME1 142110Z 05007KT 36/20 A3002 RMK A01 T03560198  RH  040%=      5-min Rain = 0
KME1 142111Z 05008KT 36/20 A3002 RMK A01 T03560200  RH  040%=      5-min Rain = 0
KME1 142112Z 04006KT 36/20 A3002 RMK A01 T03560196  RH  039%=      5-min Rain = 0
KME1 142113Z 05006KT 36/20 A3002 RMK A01 T03550198  RH  040%=      5-min Rain = 0
KME1 142114Z 05007KT 35/20 A3002 RMK A01 T03540196  RH  040%=      5-min Rain = 0
KME1 142115Z 05007KT 35/20 A3002 RMK A01 T03540196  RH  040%=      5-min Rain = 0
KME1 142116Z 04006KT 35/20 A3002 RMK A01 T03540195  RH  039%=      5-min Rain = 0
KME1 142117Z 03007KT 35/19 A3002 RMK A01 T03540194  RH  039%=      5-min Rain = 0
KME1 142118Z 07004KT 36/19 A3002 RMK A01 T03550192  RH  039%=      5-min Rain = 0
KME1 142119Z 10006KT 36/19 A3002 RMK A01 T03560194  RH  039%=      5-min Rain = 0
KME1 142120Z 06006KT 36/20 A3002 RMK A01 T03560195  RH  039%=      5-min Rain = 0
KME1 142121Z 04006KT 36/20 A3002 RMK A01 T03560196  RH  039%=      5-min Rain = 0
KME1 142122Z 02008KT 36/20 A3002 RMK A01 T03570195  RH  039%=      5-min Rain = 0
KME1 142123Z 03006KT 36/20 A3002 RMK A01 T03590197  RH  039%=      5-min Rain = 0
KME1 142124Z 02005KT 36/20 A3002 RMK A01 T03620198  RH  038%=      5-min Rain = 0
KME1 142125Z 04004KT 37/20 A3002 RMK A01 T03650199  RH  038%=      5-min Rain = 0
KME1 142126Z 05003KT 37/20 A3002 RMK A01 T03660199  RH  038%=      5-min Rain = 0
KME1 142127Z 07004KT 36/20 A3001 RMK A01 T03630197  RH  038%=      5-min Rain = 0
KME1 142128Z 10009KT 36/20 A3001 RMK A01 T03610197  RH  038%=      5-min Rain = 0
KME1 142129Z 11006KT 36/19 A3001 RMK A01 T03610194  RH  038%=      5-min Rain = 0
KME1 142130Z 13004KT 36/19 A3001 RMK A01 T03580193  RH  038%=      5-min Rain = 0
KME1 142131Z 12003KT 36/19 A3001 RMK A01 T03580192  RH  038%=      5-min Rain = 0
KME1 142132Z 12007KT 36/19 A3001 RMK A01 T03560194  RH  039%=      5-min Rain = 0
KME1 142133Z 08008KT 36/20 A3001 RMK A01 T03570197  RH  039%=      5-min Rain = 0
KME1 142134Z 09007KT 36/20 A3002 RMK A01 T03560196  RH  039%=      5-min Rain = 0
KME1 142135Z 09005KT 36/20 A3002 RMK A01 T03550197  RH  039%=      5-min Rain = 0
KME1 142136Z 08007KT 36/20 A3002 RMK A01 T03550197  RH  040%=      5-min Rain = 0
KME1 142137Z 08008KT 36/20 A3002 RMK A01 T03550196  RH  039%=      5-min Rain = 0
KME1 142138Z 07006KT 35/20 A3002 RMK A01 T03540195  RH  039%=      5-min Rain = 0
KME1 142139Z 07004KT 35/19 A3002 RMK A01 T03530193  RH  039%=      5-min Rain = 0
KME1 142140Z 07004KT 35/19 A3002 RMK A01 T03520194  RH  040%=      5-min Rain = 0
KME1 142141Z 08003KT 35/19 A3001 RMK A01 T03520193  RH  039%=      5-min Rain = 0
KME1 142142Z 08002KT 35/19 A3001 RMK A01 T03520190  RH  039%=      5-min Rain = 0
KME1 142143Z 09004KT 35/19 A3001 RMK A01 T03510193  RH  039%=      5-min Rain = 0
KME1 142144Z 10003KT 35/20 A3001 RMK A01 T03510197  RH  040%=      5-min Rain = 0
KME1 142145Z 09004KT 35/20 A3001 RMK A01 T03530196  RH  040%=      5-min Rain = 0
KME1 142146Z 11004KT 35/20 A3001 RMK A01 T03530196  RH  040%=      5-min Rain = 0
KME1 142147Z 13005KT 35/20 A3001 RMK A01 T03530196  RH  040%=      5-min Rain = 0
KME1 142148Z 12006KT 35/20 A3001 RMK A01 T03540197  RH  040%=      5-min Rain = 0
KME1 142149Z 11009KT 36/20 A3001 RMK A01 T03550198  RH  040%=      5-min Rain = 0
KME1 142150Z 10007KT 35/20 A3001 RMK A01 T03540197  RH  040%=      5-min Rain = 0
KME1 142151Z 11005KT 35/20 A3001 RMK A01 T03540197  RH  040%=      5-min Rain = 0
KME1 142152Z 14007KT 35/20 A3001 RMK A01 T03530195  RH  040%=      5-min Rain = 0
KME1 142153Z 13007KT 35/20 A3001 RMK A01 T03520197  RH  040%=      5-min Rain = 0
KME1 142154Z 11007KT 35/20 A3001 RMK A01 T03530197  RH  040%=      5-min Rain = 0
KME1 142155Z 12008KT 35/20 A3002 RMK A01 T03530195  RH  040%=      5-min Rain = 0
KME1 142156Z 16009G16KT 35/19 A3002 RMK A01 T03510194  RH  040%=      5-min Rain = 0
KME1 142157Z 17014KT 35/20 A3002 RMK A01 T03490198  RH  041%=      5-min Rain = 0
KME1 142158Z 17010KT 34/20 A3002 RMK A01 T03430198  RH  043%=      5-min Rain = 0
KME1 142159Z 18012KT 34/20 A3002 RMK A01 T03410198  RH  043%=      5-min Rain = 0
KME1 142200Z 18011KT 34/20 A3002 RMK A01 T03380197  RH  043%=      5-min Rain = 0
KME1 142201Z 18012KT 34/20 A3002 RMK A01 T03360197  RH  044%=      5-min Rain = 0
KME1 142202Z 18012KT 34/20 A3002 RMK A01 T03350197  RH  044%=      5-min Rain = 0
KME1 142203Z 19009KT 33/20 A3002 RMK A01 T03340197  RH  045%=      5-min Rain = 0
KME1 142204Z 19007G13KT 33/20 A3002 RMK A01 T03330198  RH  045%=      5-min Rain = 0
KME1 142205Z 19011KT 33/20 A3002 RMK A01 T03340197  RH  045%=      5-min Rain = 0
KME1 142206Z 20010KT 33/20 A3002 RMK A01 T03330198  RH  045%=      5-min Rain = 0
KME1 142207Z 21010KT 33/20 A3002 RMK A01 T03320198  RH  045%=      5-min Rain = 0
KME1 142208Z 20009KT 33/20 A3002 RMK A01 T03320198  RH  045%=      5-min Rain = 0
KME1 142209Z 19010KT 33/20 A3002 RMK A01 T03310198  RH  046%=      5-min Rain = 0
KME1 142210Z 20010G15KT 33/20 A3002 RMK A01 T03310197  RH  046%=      5-min Rain = 0
KME1 142211Z 19009G15KT 33/20 A3002 RMK A01 T03310198  RH  046%=      5-min Rain = 0
KME1 142212Z 20011KT 33/20 A3002 RMK A01 T03300197  RH  045%=      5-min Rain = 0
KME1 142213Z 19010KT 33/20 A3002 RMK A01 T03290197  RH  046%=      5-min Rain = 0
KME1 142214Z 18011KT 33/20 A3002 RMK A01 T03290197  RH  046%=      5-min Rain = 0
KME1 142215Z 18010KT 33/20 A3002 RMK A01 T03290196  RH  046%=      5-min Rain = 0
KME1 142216Z 18012KT 33/20 A3002 RMK A01 T03280196  RH  046%=      5-min Rain = 0
KME1 142217Z 18010KT 33/20 A3002 RMK A01 T03280196  RH  046%=      5-min Rain = 0
KME1 142218Z 18009G14KT 33/20 A3002 RMK A01 T03280196  RH  046%=      5-min Rain = 0
KME1 142219Z 18010KT 33/20 A3002 RMK A01 T03280196  RH  046%=      5-min Rain = 0
KME1 142220Z 18010KT 33/20 A3002 RMK A01 T03280195  RH  046%=      5-min Rain = 0
KME1 142221Z 19010KT 33/20 A3002 RMK A01 T03280195  RH  046%=      5-min Rain = 0
KME1 142222Z 19010KT 33/20 A3002 RMK A01 T03280196  RH  046%=      5-min Rain = 0
KME1 142223Z 19010KT 33/20 A3002 RMK A01 T03280196  RH  046%=      5-min Rain = 0
KME1 142224Z 19009KT 33/20 A3002 RMK A01 T03270197  RH  046%=      5-min Rain = 0
KME1 142225Z 20009KT 33/20 A3002 RMK A01 T03270197  RH  046%=      5-min Rain = 0
KME1 142226Z 20009KT 33/20 A3002 RMK A01 T03260197  RH  047%=      5-min Rain = 0
KME1 142227Z 19009KT 33/20 A3002 RMK A01 T03260198  RH  047%=      5-min Rain = 0
KME1 142228Z 19010KT 33/20 A3002 RMK A01 T03260198  RH  047%=      5-min Rain = 0
KME1 142229Z 20010KT 33/20 A3002 RMK A01 T03260198  RH  047%=      5-min Rain = 0
KME1 142230Z 20008KT 33/20 A3002 RMK A01 T03250199  RH  048%=      5-min Rain = 0
KME1 142231Z 19010KT 32/20 A3002 RMK A01 T03240200  RH  048%=      5-min Rain = 0
KME1 142232Z 20009KT 32/20 A3003 RMK A01 T03240199  RH  048%=      5-min Rain = 0
KME1 142233Z 19010KT 32/20 A3003 RMK A01 T03230199  RH  048%=      5-min Rain = 0
KME1 142234Z 19012KT 32/20 A3003 RMK A01 T03220198  RH  048%=      5-min Rain = 0
KME1 142235Z 19010KT 32/20 A3003 RMK A01 T03210196  RH  048%=      5-min Rain = 0
KME1 142236Z 19010KT 32/20 A3003 RMK A01 T03200196  RH  048%=      5-min Rain = 0
KME1 142237Z 18011KT 32/20 A3003 RMK A01 T03200196  RH  048%=      5-min Rain = 0
KME1 142238Z 19010KT 32/20 A3003 RMK A01 T03190196  RH  048%=      5-min Rain = 0
KME1 142239Z 19007KT 32/20 A3003 RMK A01 T03190196  RH  048%=      5-min Rain = 0
KME1 142240Z 18010KT 32/20 A3003 RMK A01 T03190197  RH  049%=      5-min Rain = 0
KME1 142241Z 19011KT 32/20 A3003 RMK A01 T03190197  RH  048%=      5-min Rain = 0
KME1 142242Z 18010KT 32/20 A3003 RMK A01 T03190196  RH  048%=      5-min Rain = 0
KME1 142243Z 19010KT 32/20 A3003 RMK A01 T03180196  RH  049%=      5-min Rain = 0
KME1 142244Z 20010KT 32/20 A3003 RMK A01 T03170196  RH  049%=      5-min Rain = 0
KME1 142245Z 20011KT 32/20 A3003 RMK A01 T03170196  RH  049%=      5-min Rain = 0
KME1 142246Z 19008KT 32/20 A3003 RMK A01 T03170197  RH  049%=      5-min Rain = 0
KME1 142247Z 18007KT 32/20 A3003 RMK A01 T03170197  RH  049%=      5-min Rain = 0
KME1 142248Z 18008KT 32/20 A3003 RMK A01 T03170197  RH  049%=      5-min Rain = 0
KME1 142249Z 19009KT 32/20 A3003 RMK A01 T03170196  RH  049%=      5-min Rain = 0
KME1 142250Z 19009KT 32/20 A3003 RMK A01 T03170196  RH  049%=      5-min Rain = 0
KME1 142251Z 19008KT 32/20 A3003 RMK A01 T03170196  RH  049%=      5-min Rain = 0
KME1 142252Z 18009KT 32/20 A3003 RMK A01 T03160196  RH  049%=      5-min Rain = 0
KME1 142253Z 19011KT 32/20 A3003 RMK A01 T03170196  RH  049%=      5-min Rain = 0
KME1 142254Z 19011KT 32/20 A3003 RMK A01 T03160195  RH  049%=      5-min Rain = 0
KME1 142255Z 19010KT 32/19 A3003 RMK A01 T03150194  RH  049%=      5-min Rain = 0
KME1 142256Z 20011KT 32/19 A3003 RMK A01 T03150194  RH  049%=      5-min Rain = 0
KME1 142257Z 20010KT 32/19 A3003 RMK A01 T03150194  RH  049%=      5-min Rain = 0
KME1 142258Z 19009KT 31/19 A3003 RMK A01 T03140193  RH  049%=      5-min Rain = 0
KME1 142259Z 20007KT 31/19 A3003 RMK A01 T03140194  RH  049%=      5-min Rain = 0
KME1 142300Z 20012KT 31/20 A3003 RMK A01 T03140195  RH  049%=      5-min Rain = 0
KME1 142301Z 20010KT 31/20 A3003 RMK A01 T03140195  RH  049%=      5-min Rain = 0
KME1 142302Z 22011KT 31/20 A3003 RMK A01 T03140196  RH  050%=      5-min Rain = 0
KME1 142303Z 21011KT 31/20 A3003 RMK A01 T03140198  RH  050%=      5-min Rain = 0
KME1 142304Z 21013KT 31/20 A3003 RMK A01 T03130198  RH  050%=      5-min Rain = 0
KME1 142305Z 21012KT 31/20 A3004 RMK A01 T03120197  RH  050%=      5-min Rain = 0
KME1 142306Z 21014KT 31/20 A3004 RMK A01 T03110195  RH  050%=      5-min Rain = 0
KME1 142307Z 21011G16KT 31/19 A3004 RMK A01 T03100193  RH  050%=      5-min Rain = 0
KME1 142308Z 21010G16KT 31/19 A3004 RMK A01 T03090193  RH  050%=      5-min Rain = 0
KME1 142309Z 21010KT 31/19 A3004 RMK A01 T03090193  RH  050%=      5-min Rain = 0
KME1 142310Z 21013KT 31/19 A3003 RMK A01 T03080193  RH  050%=      5-min Rain = 0
KME1 142311Z 21013KT 31/19 A3003 RMK A01 T03070192  RH  050%=      5-min Rain = 0
KME1 142312Z 21011KT 31/19 A3003 RMK A01 T03060192  RH  051%=      5-min Rain = 0
KME1 142313Z 21011KT 31/19 A3003 RMK A01 T03060192  RH  051%=      5-min Rain = 0
KME1 142314Z 20010KT 31/19 A3003 RMK A01 T03050192  RH  051%=      5-min Rain = 0
KME1 142315Z 21011KT 30/19 A3003 RMK A01 T03040192  RH  051%=      5-min Rain = 0
KME1 142316Z 21009KT 30/19 A3003 RMK A01 T03040193  RH  051%=      5-min Rain = 0
KME1 142317Z 21012KT 30/19 A3003 RMK A01 T03040192  RH  051%=      5-min Rain = 0
KME1 142318Z 20012KT 30/19 A3003 RMK A01 T03030193  RH  052%=      5-min Rain = 0
KME1 142319Z 21011KT 30/19 A3003 RMK A01 T03020192  RH  052%=      5-min Rain = 0
KME1 142320Z 21011KT 30/19 A3003 RMK A01 T03010192  RH  052%=      5-min Rain = 0
KME1 142321Z 21010KT 30/19 A3003 RMK A01 T03000192  RH  052%=      5-min Rain = 0
KME1 142322Z 20009KT 30/19 A3003 RMK A01 T03000192  RH  052%=      5-min Rain = 0
KME1 142323Z 20008KT 30/19 A3003 RMK A01 T02990192  RH  053%=      5-min Rain = 0
KME1 142324Z 21007KT 30/19 A3003 RMK A01 T02990193  RH  053%=      5-min Rain = 0
KME1 142325Z 21009KT 30/19 A3003 RMK A01 T02990193  RH  053%=      5-min Rain = 0
KME1 142326Z 21009KT 30/19 A3003 RMK A01 T02990192  RH  053%=      5-min Rain = 0
KME1 142327Z 20010KT 30/19 A3003 RMK A01 T02990192  RH  053%=      5-min Rain = 0
KME1 142328Z 21010KT 30/19 A3003 RMK A01 T02980191  RH  053%=      5-min Rain = 0
KME1 142329Z 22008KT 30/19 A3003 RMK A01 T02970192  RH  053%=      5-min Rain = 0
KME1 142330Z 22011KT 30/19 A3003 RMK A01 T02970192  RH  053%=      5-min Rain = 0
KME1 142331Z 21011KT 30/19 A3003 RMK A01 T02960192  RH  053%=      5-min Rain = 0
KME1 142332Z 22011KT 30/19 A3003 RMK A01 T02950192  RH  054%=      5-min Rain = 0
KME1 142333Z 22009KT 29/19 A3003 RMK A01 T02940192  RH  054%=      5-min Rain = 0
KME1 142334Z 22011KT 29/19 A3002 RMK A01 T02930192  RH  054%=      5-min Rain = 0
KME1 142335Z 21008KT 29/19 A3002 RMK A01 T02930192  RH  054%=      5-min Rain = 0
KME1 142336Z 22009KT 29/19 A3002 RMK A01 T02930192  RH  054%=      5-min Rain = 0
KME1 142337Z 21012KT 29/19 A3002 RMK A01 T02930192  RH  054%=      5-min Rain = 0
KME1 142338Z 21007KT 29/19 A3002 RMK A01 T02930191  RH  054%=      5-min Rain = 0
KME1 142339Z 21007KT 29/19 A3002 RMK A01 T02930191  RH  054%=      5-min Rain = 0
KME1 142340Z 20007KT 29/19 A3002 RMK A01 T02930190  RH  054%=      5-min Rain = 0
KME1 142341Z 21005KT 29/19 A3002 RMK A01 T02920190  RH  054%=      5-min Rain = 0
KME1 142342Z 20008KT 29/19 A3002 RMK A01 T02930190  RH  054%=      5-min Rain = 0
KME1 142343Z 20008KT 29/19 A3002 RMK A01 T02930187  RH  053%=      5-min Rain = 0
KME1 142344Z 20007KT 29/19 A3002 RMK A01 T02930187  RH  053%=      5-min Rain = 0
KME1 142345Z 21008KT 29/19 A3002 RMK A01 T02930186  RH  053%=      5-min Rain = 0
KME1 142346Z 21008KT 29/19 A3002 RMK A01 T02930185  RH  052%=      5-min Rain = 0
KME1 142347Z 21007KT 29/19 A3002 RMK A01 T02920186  RH  053%=      5-min Rain = 0
KME1 142348Z 20008KT 29/19 A3002 RMK A01 T02920186  RH  053%=      5-min Rain = 0
KME1 142349Z 20008KT 29/19 A3002 RMK A01 T02920186  RH  053%=      5-min Rain = 0
KME1 142350Z 20009KT 29/19 A3002 RMK A01 T02920186  RH  053%=      5-min Rain = 0
KME1 142351Z 21010KT 29/19 A3002 RMK A01 T02920185  RH  052%=      5-min Rain = 0
KME1 142352Z 20011G16KT 29/19 A3002 RMK A01 T02920185  RH  052%=      5-min Rain = 0
KME1 142353Z 21011KT 29/18 A3002 RMK A01 T02920182  RH  052%=      5-min Rain = 0
KME1 142354Z 20011KT 29/18 A3002 RMK A01 T02910182  RH  052%=      5-min Rain = 0
KME1 142355Z 21010KT 29/18 A3002 RMK A01 T02910181  RH  052%=      5-min Rain = 0
KME1 142356Z 20008KT 29/18 A3002 RMK A01 T02910182  RH  052%=      5-min Rain = 0
KME1 142357Z 20009KT 29/18 A3002 RMK A01 T02910183  RH  052%=      5-min Rain = 0
KME1 142358Z 20011KT 29/18 A3002 RMK A01 T02910182  RH  052%=      5-min Rain = 0
KME1 142359Z 20012KT 29/18 A3002 RMK A01 T02910182  RH  052%=      5-min Rain = 0
KME1 150000Z 20008KT 29/18 A3002 RMK A01 T02900183  RH  052%=      5-min Rain = 0
KME1 150001Z 20008KT 29/18 A3002 RMK A01 T02900183  RH  052%=      5-min Rain = 0
KME1 150002Z 20007KT 29/18 A3002 RMK A01 T02900183  RH  053%=      5-min Rain = 0
KME1 150003Z 19007KT 29/18 A3002 RMK A01 T02900184  RH  053%=      5-min Rain = 0
KME1 150004Z 19008KT 29/18 A3002 RMK A01 T02900184  RH  053%=      5-min Rain = 0
KME1 150005Z 20008KT 29/19 A3002 RMK A01 T02900185  RH  053%=      5-min Rain = 0
KME1 150006Z 20007KT 29/19 A3002 RMK A01 T02900185  RH  053%=      5-min Rain = 0
KME1 150007Z 20006KT 29/18 A3002 RMK A01 T02890184  RH  053%=      5-min Rain = 0
KME1 150008Z 20005KT 29/19 A3002 RMK A01 T02890185  RH  053%=      5-min Rain = 0
KME1 150009Z 20007KT 29/19 A3002 RMK A01 T02890185  RH  053%=      5-min Rain = 0
KME1 150010Z 20008KT 29/19 A3002 RMK A01 T02890185  RH  053%=      5-min Rain = 0
KME1 150011Z 19006KT 29/19 A3002 RMK A01 T02890185  RH  053%=      5-min Rain = 0
KME1 150012Z 19005KT 29/19 A3002 RMK A01 T02890185  RH  054%=      5-min Rain = 0
KME1 150013Z 19006KT 29/19 A3002 RMK A01 T02890186  RH  054%=      5-min Rain = 0
KME1 150014Z 19008KT 29/19 A3002 RMK A01 T02890185  RH  054%=      5-min Rain = 0
KME1 150015Z 19005KT 29/19 A3002 RMK A01 T02890185  RH  053%=      5-min Rain = 0
KME1 150016Z 19007KT 29/19 A3002 RMK A01 T02880185  RH  054%=      5-min Rain = 0
KME1 150017Z 19007KT 29/19 A3002 RMK A01 T02890185  RH  054%=      5-min Rain = 0
KME1 150018Z 19006KT 29/19 A3002 RMK A01 T02880185  RH  054%=      5-min Rain = 0
KME1 150019Z 19005KT 29/19 A3002 RMK A01 T02880186  RH  054%=      5-min Rain = 0
KME1 150020Z 19005KT 29/19 A3002 RMK A01 T02880186  RH  054%=      5-min Rain = 0
KME1 150021Z 21005KT 29/19 A3001 RMK A01 T02880186  RH  054%=      5-min Rain = 0
KME1 150022Z 19007KT 29/19 A3001 RMK A01 T02880186  RH  054%=      5-min Rain = 0
KME1 150023Z 19011KT 29/19 A3001 RMK A01 T02880185  RH  054%=      5-min Rain = 0
KME1 150024Z 19007KT 29/19 A3001 RMK A01 T02870185  RH  054%=      5-min Rain = 0
KME1 150025Z 20008KT 29/19 A3001 RMK A01 T02870185  RH  054%=      5-min Rain = 0
KME1 150026Z 20007KT 29/19 A3001 RMK A01 T02870186  RH  054%=      5-min Rain = 0
KME1 150027Z 20009KT 29/19 A3001 RMK A01 T02860185  RH  054%=      5-min Rain = 0
KME1 150028Z 20009KT 29/19 A3001 RMK A01 T02860185  RH  054%=      5-min Rain = 0
KME1 150029Z 20010KT 29/19 A3001 RMK A01 T02860185  RH  054%=      5-min Rain = 0
KME1 150030Z 20008KT 29/19 A3001 RMK A01 T02860186  RH  054%=      5-min Rain = 0
KME1 150031Z 21010KT 29/19 A3001 RMK A01 T02860186  RH  055%=      5-min Rain = 0
KME1 150032Z 21009KT 29/19 A3001 RMK A01 T02860186  RH  055%=      5-min Rain = 0
KME1 150033Z 20008KT 29/19 A3001 RMK A01 T02860186  RH  055%=      5-min Rain = 0
KME1 150034Z 19007KT 29/19 A3001 RMK A01 T02860186  RH  055%=      5-min Rain = 0
KME1 150035Z 19008KT 29/19 A3001 RMK A01 T02860187  RH  055%=      5-min Rain = 0
KME1 150036Z 20008KT 29/19 A3001 RMK A01 T02860187  RH  055%=      5-min Rain = 0
KME1 150037Z 20008KT 29/19 A3002 RMK A01 T02850186  RH  055%=      5-min Rain = 0
KME1 150038Z 19008KT 29/19 A3002 RMK A01 T02850186  RH  055%=      5-min Rain = 0
KME1 150039Z 20008KT 29/19 A3002 RMK A01 T02850186  RH  055%=      5-min Rain = 0
KME1 150040Z 20007KT 29/19 A3002 RMK A01 T02850187  RH  055%=      5-min Rain = 0
KME1 150041Z 20009KT 29/19 A3002 RMK A01 T02850186  RH  055%=      5-min Rain = 0
KME1 150042Z 20008KT 28/19 A3002 RMK A01 T02840186  RH  055%=      5-min Rain = 0
KME1 150043Z 20008KT 28/19 A3002 RMK A01 T02840185  RH  055%=      5-min Rain = 0
KME1 150044Z 20007KT 28/19 A3002 RMK A01 T02840185  RH  055%=      5-min Rain = 0
KME1 150045Z 20010KT 28/19 A3002 RMK A01 T02840185  RH  055%=      5-min Rain = 0
KME1 150046Z 20009KT 28/19 A3002 RMK A01 T02840185  RH  055%=      5-min Rain = 0
KME1 150047Z 21010KT 28/18 A3002 RMK A01 T02840184  RH  055%=      5-min Rain = 0
KME1 150048Z 20012KT 28/19 A3002 RMK A01 T02840185  RH  055%=      5-min Rain = 0
KME1 150049Z 20012KT 28/18 A3002 RMK A01 T02840184  RH  055%=      5-min Rain = 0
KME1 150050Z 20008KT 28/18 A3002 RMK A01 T02830183  RH  055%=      5-min Rain = 0
KME1 150051Z 19009KT 28/18 A3002 RMK A01 T02830184  RH  055%=      5-min Rain = 0
KME1 150052Z 20011KT 28/18 A3002 RMK A01 T02830184  RH  055%=      5-min Rain = 0
KME1 150053Z 20009KT 28/18 A3002 RMK A01 T02820184  RH  055%=      5-min Rain = 0
KME1 150054Z 19008KT 28/19 A3002 RMK A01 T02820185  RH  055%=      5-min Rain = 0
KME1 150055Z 20010KT 28/19 A3002 RMK A01 T02820185  RH  055%=      5-min Rain = 0
KME1 150056Z 20009KT 28/19 A3002 RMK A01 T02820185  RH  056%=      5-min Rain = 0
KME1 150057Z 20006KT 28/19 A3002 RMK A01 T02820185  RH  056%=      5-min Rain = 0
KME1 150058Z 20006KT 28/19 A3002 RMK A01 T02810185  RH  056%=      5-min Rain = 0
KME1 150059Z 20009KT 28/19 A3002 RMK A01 T02820186  RH  056%=      5-min Rain = 0
KME1 150100Z 20008KT 28/19 A3002 RMK A01 T02810185  RH  056%=      5-min Rain = 0
KME1 150101Z 20008KT 28/19 A3002 RMK A01 T02810185  RH  056%=      5-min Rain = 0
KME1 150102Z 19007KT 28/19 A3002 RMK A01 T02810185  RH  056%=      5-min Rain = 0
KME1 150103Z 21008KT 28/19 A3002 RMK A01 T02810185  RH  056%=      5-min Rain = 0
KME1 150104Z 20007KT 28/19 A3002 RMK A01 T02810185  RH  056%=      5-min Rain = 0
KME1 150105Z 20007KT 28/19 A3002 RMK A01 T02800185  RH  056%=      5-min Rain = 0
KME1 150106Z 20008KT 28/19 A3002 RMK A01 T02800185  RH  056%=      5-min Rain = 0
KME1 150107Z 20007KT 28/19 A3002 RMK A01 T02800185  RH  056%=      5-min Rain = 0
KME1 150108Z 20007G13KT 28/19 A3002 RMK A01 T02800185  RH  056%=      5-min Rain = 0
KME1 150109Z 20008KT 28/19 A3002 RMK A01 T02800185  RH  056%=      5-min Rain = 0
KME1 150110Z 20007KT 28/19 A3002 RMK A01 T02790185  RH  056%=      5-min Rain = 0
KME1 150111Z 20006KT 28/19 A3002 RMK A01 T02790185  RH  057%=      5-min Rain = 0
KME1 150112Z 21007KT 28/19 A3002 RMK A01 T02790185  RH  057%=      5-min Rain = 0
KME1 150113Z 20007KT 28/19 A3002 RMK A01 T02790185  RH  057%=      5-min Rain = 0
KME1 150114Z 20006KT 28/19 A3003 RMK A01 T02790185  RH  057%=      5-min Rain = 0
KME1 150115Z 20006G11KT 28/19 A3002 RMK A01 T02780185  RH  057%=      5-min Rain = 0
KME1 150116Z 21008KT 28/19 A3002 RMK A01 T02780185  RH  057%=      5-min Rain = 0
KME1 150117Z 20008KT 28/19 A3003 RMK A01 T02780185  RH  057%=      5-min Rain = 0
KME1 150118Z 20006KT 28/18 A3003 RMK A01 T02780184  RH  057%=      5-min Rain = 0
KME1 150119Z 21006KT 28/19 A3003 RMK A01 T02770185  RH  057%=      5-min Rain = 0
KME1 150120Z 20006KT 28/19 A3003 RMK A01 T02770185  RH  057%=      5-min Rain = 0
KME1 150121Z 20005KT 28/18 A3003 RMK A01 T02760184  RH  057%=      5-min Rain = 0
KME1 150122Z 20006KT 28/19 A3003 RMK A01 T02760185  RH  057%=      5-min Rain = 0
KME1 150123Z 20007KT 28/19 A3003 RMK A01 T02760185  RH  057%=      5-min Rain = 0
KME1 150124Z 20006KT 28/18 A3003 RMK A01 T02750184  RH  058%=      5-min Rain = 0
KME1 150125Z 21006KT 28/19 A3003 RMK A01 T02760185  RH  058%=      5-min Rain = 0
KME1 150126Z 20008KT 28/19 A3003 RMK A01 T02750185  RH  058%=      5-min Rain = 0
KME1 150127Z 21008KT 28/19 A3003 RMK A01 T02750185  RH  058%=      5-min Rain = 0
KME1 150128Z 21008KT 27/19 A3003 RMK A01 T02740185  RH  058%=      5-min Rain = 0
KME1 150129Z 21007KT 27/19 A3003 RMK A01 T02740185  RH  058%=      5-min Rain = 0
KME1 150130Z 20006KT 27/19 A3003 RMK A01 T02740185  RH  058%=      5-min Rain = 0
KME1 150131Z 21006KT 27/19 A3004 RMK A01 T02740185  RH  058%=      5-min Rain = 0
KME1 150132Z 21008KT 27/19 A3004 RMK A01 T02730185  RH  059%=      5-min Rain = 0
KME1 150133Z 20006KT 27/19 A3004 RMK A01 T02730185  RH  059%=      5-min Rain = 0
KME1 150134Z 20006KT 27/19 A3004 RMK A01 T02730185  RH  059%=      5-min Rain = 0
KME1 150135Z 20005KT 27/19 A3004 RMK A01 T02730185  RH  059%=      5-min Rain = 0
KME1 150136Z 21005KT 27/19 A3004 RMK A01 T02720185  RH  059%=      5-min Rain = 0
KME1 150137Z 20005KT 27/19 A3004 RMK A01 T02720185  RH  059%=      5-min Rain = 0
KME1 150138Z 21006KT 27/19 A3004 RMK A01 T02710185  RH  059%=      5-min Rain = 0
KME1 150139Z 21006KT 27/19 A3004 RMK A01 T02710185  RH  059%=      5-min Rain = 0
KME1 150140Z 20005KT 27/19 A3004 RMK A01 T02710185  RH  059%=      5-min Rain = 0
KME1 150141Z 21005KT 27/19 A3004 RMK A01 T02710185  RH  060%=      5-min Rain = 0
KME1 150142Z 20005KT 27/19 A3004 RMK A01 T02700186  RH  060%=      5-min Rain = 0
KME1 150143Z 20006KT 27/19 A3004 RMK A01 T02700185  RH  060%=      5-min Rain = 0
KME1 150144Z 21005KT 27/19 A3004 RMK A01 T02690185  RH  060%=      5-min Rain = 0
KME1 150145Z 21004KT 27/19 A3004 RMK A01 T02690185  RH  060%=      5-min Rain = 0
KME1 150146Z 21004KT 27/19 A3004 RMK A01 T02690186  RH  060%=      5-min Rain = 0
KME1 150147Z 21003KT 27/19 A3004 RMK A01 T02690186  RH  060%=      5-min Rain = 0
KME1 150148Z 20004KT 27/19 A3004 RMK A01 T02680186  RH  061%=      5-min Rain = 0
KME1 150149Z 21005KT 27/19 A3005 RMK A01 T02680185  RH  061%=      5-min Rain = 0
KME1 150150Z 21005KT 27/19 A3005 RMK A01 T02680186  RH  061%=      5-min Rain = 0
KME1 150151Z 21005KT 27/19 A3005 RMK A01 T02670185  RH  061%=      5-min Rain = 0
KME1 150152Z 21004KT 27/19 A3005 RMK A01 T02670186  RH  061%=      5-min Rain = 0
KME1 150153Z 20004KT 27/19 A3005 RMK A01 T02670185  RH  061%=      5-min Rain = 0
KME1 150154Z 21004KT 27/19 A3005 RMK A01 T02670186  RH  061%=      5-min Rain = 0
KME1 150155Z 21005KT 27/19 A3005 RMK A01 T02660186  RH  061%=      5-min Rain = 0
KME1 150156Z 22004KT 27/19 A3005 RMK A01 T02660186  RH  061%=      5-min Rain = 0
KME1 150157Z 21004KT 27/19 A3005 RMK A01 T02660186  RH  062%=      5-min Rain = 0
KME1 150158Z 21004KT 27/19 A3005 RMK A01 T02660186  RH  062%=      5-min Rain = 0
KME1 150159Z 20004KT 27/19 A3005 RMK A01 T02660186  RH  062%=      5-min Rain = 0
KME1 150200Z 21004KT 27/19 A3005 RMK A01 T02650186  RH  062%=      5-min Rain = 0
KME1 150201Z 21004KT 27/19 A3005 RMK A01 T02650186  RH  062%=      5-min Rain = 0
KME1 150202Z 20004KT 26/19 A3005 RMK A01 T02640186  RH  062%=      5-min Rain = 0
KME1 150203Z 21004KT 26/19 A3005 RMK A01 T02640186  RH  062%=      5-min Rain = 0
KME1 150204Z 20003KT 26/19 A3005 RMK A01 T02640186  RH  062%=      5-min Rain = 0
KME1 150205Z 20003KT 26/19 A3005 RMK A01 T02630186  RH  063%=      5-min Rain = 0
KME1 150206Z 20003KT 26/19 A3006 RMK A01 T02630186  RH  063%=      5-min Rain = 0
KME1 150207Z 20004KT 26/19 A3006 RMK A01 T02630186  RH  063%=      5-min Rain = 0
KME1 150208Z 20003KT 26/19 A3006 RMK A01 T02630186  RH  063%=      5-min Rain = 0
KME1 150209Z 21004KT 26/19 A3006 RMK A01 T02630186  RH  063%=      5-min Rain = 0
KME1 150210Z 21004KT 26/19 A3006 RMK A01 T02620186  RH  063%=      5-min Rain = 0
KME1 150211Z 22004KT 26/19 A3006 RMK A01 T02620186  RH  063%=      5-min Rain = 0
KME1 150212Z 23004KT 26/19 A3006 RMK A01 T02620186  RH  063%=      5-min Rain = 0
KME1 150213Z 23004KT 26/19 A3006 RMK A01 T02620186  RH  063%=      5-min Rain = 0
KME1 150214Z 23004KT 26/19 A3006 RMK A01 T02620186  RH  063%=      5-min Rain = 0
KME1 150215Z 23004KT 26/19 A3006 RMK A01 T02620187  RH  063%=      5-min Rain = 0
KME1 150216Z 23004KT 26/19 A3006 RMK A01 T02620186  RH  063%=      5-min Rain = 0
KME1 150217Z 23004KT 26/19 A3006 RMK A01 T02620187  RH  063%=      5-min Rain = 0
KME1 150218Z 24003KT 26/19 A3006 RMK A01 T02620187  RH  063%=      5-min Rain = 0
KME1 150219Z 24003KT 26/19 A3006 RMK A01 T02610187  RH  063%=      5-min Rain = 0
KME1 150220Z 25003KT 26/19 A3006 RMK A01 T02610187  RH  064%=      5-min Rain = 0
KME1 150221Z 25003KT 26/19 A3006 RMK A01 T02610187  RH  064%=      5-min Rain = 0
KME1 150222Z 25003KT 26/19 A3006 RMK A01 T02610187  RH  064%=      5-min Rain = 0
KME1 150223Z 25003KT 26/19 A3006 RMK A01 T02600187  RH  064%=      5-min Rain = 0
KME1 150224Z 24002KT 26/19 A3006 RMK A01 T02600186  RH  064%=      5-min Rain = 0
KME1 150225Z 24002KT 26/19 A3006 RMK A01 T02600187  RH  064%=      5-min Rain = 0
KME1 150226Z 24002KT 26/19 A3007 RMK A01 T02590186  RH  064%=      5-min Rain = 0
KME1 150227Z 23002KT 26/19 A3007 RMK A01 T02590186  RH  064%=      5-min Rain = 0
KME1 150228Z 23003KT 26/19 A3007 RMK A01 T02590186  RH  064%=      5-min Rain = 0
KME1 150229Z 23002KT 26/19 A3007 RMK A01 T02590186  RH  064%=      5-min Rain = 0
KME1 150230Z 22002KT 26/19 A3007 RMK A01 T02580186  RH  064%=      5-min Rain = 0
KME1 150231Z 22002KT 26/19 A3007 RMK A01 T02580186  RH  064%=      5-min Rain = 0
KME1 150232Z 22002KT 26/19 A3007 RMK A01 T02580186  RH  065%=      5-min Rain = 0
KME1 150233Z 22002KT 26/19 A3007 RMK A01 T02580186  RH  065%=      5-min Rain = 0
KME1 150234Z 21002KT 26/19 A3007 RMK A01 T02570186  RH  065%=      5-min Rain = 0
KME1 150235Z 22001KT 26/19 A3007 RMK A01 T02570186  RH  065%=      5-min Rain = 0
KME1 150236Z 22001KT 26/19 A3007 RMK A01 T02570186  RH  065%=      5-min Rain = 0
KME1 150237Z 23001KT 26/19 A3007 RMK A01 T02560186  RH  065%=      5-min Rain = 0
KME1 150238Z 23002KT 26/19 A3007 RMK A01 T02560186  RH  065%=      5-min Rain = 0
KME1 150239Z 23001KT 26/19 A3007 RMK A01 T02550186  RH  065%=      5-min Rain = 0
KME1 150240Z 23002KT 26/19 A3006 RMK A01 T02550185  RH  065%=      5-min Rain = 0
KME1 150241Z 23001KT 25/19 A3007 RMK A01 T02540185  RH  066%=      5-min Rain = 0
KME1 150242Z 22002KT 25/18 A3007 RMK A01 T02530184  RH  066%=      5-min Rain = 0
KME1 150243Z 22001KT 25/18 A3007 RMK A01 T02530184  RH  066%=      5-min Rain = 0
KME1 150244Z 22001KT 25/18 A3007 RMK A01 T02530184  RH  066%=      5-min Rain = 0
KME1 150245Z 24001KT 25/18 A3007 RMK A01 T02530184  RH  066%=      5-min Rain = 0
KME1 150246Z 25001KT 25/18 A3007 RMK A01 T02520184  RH  066%=      5-min Rain = 0
KME1 150247Z 25001KT 25/18 A3007 RMK A01 T02520184  RH  066%=      5-min Rain = 0
KME1 150248Z 24000KT 25/18 A3007 RMK A01 T02520184  RH  066%=      5-min Rain = 0
KME1 150249Z 22000KT 25/18 A3007 RMK A01 T02510184  RH  066%=      5-min Rain = 0
KME1 150250Z 21000KT 25/18 A3007 RMK A01 T02510184  RH  066%=      5-min Rain = 0
KME1 150251Z 23001KT 25/18 A3007 RMK A01 T02510183  RH  066%=      5-min Rain = 0
KME1 150252Z 25001KT 25/18 A3007 RMK A01 T02510183  RH  066%=      5-min Rain = 0
KME1 150253Z 24002KT 25/18 A3007 RMK A01 T02510183  RH  066%=      5-min Rain = 0
KME1 150254Z 25002KT 25/18 A3007 RMK A01 T02510183  RH  066%=      5-min Rain = 0
KME1 150255Z 25002KT 25/18 A3007 RMK A01 T02510183  RH  066%=      5-min Rain = 0
KME1 150256Z 25002KT 25/18 A3007 RMK A01 T02510183  RH  066%=      5-min Rain = 0
KME1 150257Z 23002KT 25/18 A3007 RMK A01 T02500183  RH  066%=      5-min Rain = 0
KME1 150258Z 21001KT 25/18 A3007 RMK A01 T02500183  RH  067%=      5-min Rain = 0
KME1 150259Z 19001KT 25/18 A3008 RMK A01 T02490183  RH  067%=      5-min Rain = 0
KME1 150300Z 18002KT 25/18 A3008 RMK A01 T02490183  RH  067%=      5-min Rain = 0
KME1 150301Z 19002KT 25/18 A3008 RMK A01 T02480183  RH  067%=      5-min Rain = 0
KME1 150302Z 20002KT 25/18 A3008 RMK A01 T02470183  RH  067%=      5-min Rain = 0
KME1 150303Z 21002KT 25/18 A3008 RMK A01 T02470183  RH  068%=      5-min Rain = 0
KME1 150304Z 21002KT 25/18 A3008 RMK A01 T02460183  RH  068%=      5-min Rain = 0
KME1 150305Z 22002KT 25/18 A3008 RMK A01 T02460183  RH  068%=      5-min Rain = 0
KME1 150306Z 22002KT 25/18 A3008 RMK A01 T02460183  RH  068%=      5-min Rain = 0
KME1 150307Z 21002KT 25/18 A3008 RMK A01 T02460183  RH  068%=      5-min Rain = 0
KME1 150308Z 21002KT 25/18 A3008 RMK A01 T02460183  RH  068%=      5-min Rain = 0
KME1 150309Z 20001KT 25/18 A3008 RMK A01 T02460183  RH  068%=      5-min Rain = 0
KME1 150310Z 19001KT 25/18 A3008 RMK A01 T02460183  RH  068%=      5-min Rain = 0
KME1 150311Z 18002KT 25/18 A3008 RMK A01 T02460183  RH  068%=      5-min Rain = 0
KME1 150312Z 18002KT 25/18 A3008 RMK A01 T02460183  RH  068%=      5-min Rain = 0
KME1 150313Z 17002KT 25/18 A3008 RMK A01 T02460183  RH  068%=      5-min Rain = 0
KME1 150314Z 18001KT 25/18 A3008 RMK A01 T02450183  RH  068%=      5-min Rain = 0
KME1 150315Z 18001KT 24/18 A3008 RMK A01 T02440182  RH  068%=      5-min Rain = 0
KME1 150316Z 17001KT 24/18 A3009 RMK A01 T02440182  RH  069%=      5-min Rain = 0
KME1 150317Z 17001KT 24/18 A3009 RMK A01 T02440182  RH  069%=      5-min Rain = 0
KME1 150318Z 16001KT 24/18 A3009 RMK A01 T02430183  RH  069%=      5-min Rain = 0
KME1 150319Z 14001KT 24/18 A3009 RMK A01 T02430183  RH  069%=      5-min Rain = 0
KME1 150320Z 13001KT 24/18 A3009 RMK A01 T02430183  RH  069%=      5-min Rain = 0
KME1 150321Z 13001KT 24/18 A3009 RMK A01 T02430183  RH  069%=      5-min Rain = 0
KME1 150322Z 13000KT 24/18 A3009 RMK A01 T02430184  RH  070%=      5-min Rain = 0
KME1 150323Z 13001KT 24/18 A3009 RMK A01 T02420184  RH  070%=      5-min Rain = 0
KME1 150324Z 13001KT 24/19 A3009 RMK A01 T02420185  RH  070%=      5-min Rain = 0
KME1 150325Z 13001KT 24/19 A3009 RMK A01 T02430185  RH  070%=      5-min Rain = 0
KME1 150326Z 13000KT 24/19 A3009 RMK A01 T02430185  RH  070%=      5-min Rain = 0
KME1 150327Z 00000KT 24/19 A3009 RMK A01 T02420186  RH  071%=      5-min Rain = 0
KME1 150328Z 00000KT 24/19 A3009 RMK A01 T02430187  RH  071%=      5-min Rain = 0
KME1 150329Z 00000KT 24/19 A3009 RMK A01 T02430186  RH  071%=      5-min Rain = 0
KME1 150330Z 00000KT 24/19 A3009 RMK A01 T02430186  RH  070%=      5-min Rain = 0
KME1 150331Z 00000KT 24/19 A3009 RMK A01 T02440186  RH  070%=      5-min Rain = 0
KME1 150332Z 00000KT 24/19 A3009 RMK A01 T02440186  RH  070%=      5-min Rain = 0
KME1 150333Z 00000KT 24/19 A3009 RMK A01 T02440185  RH  070%=      5-min Rain = 0
KME1 150334Z 00000KT 24/19 A3009 RMK A01 T02440185  RH  070%=      5-min Rain = 0
KME1 150335Z 13001KT 24/19 A301 RMK A01 T02440185  RH  070%=      5-min Rain = 0
KME1 150336Z 13001KT 25/19 A301 RMK A01 T02450187  RH  070%=      5-min Rain = 0
KME1 150337Z 13001KT 24/19 A301 RMK A01 T02440187  RH  070%=      5-min Rain = 0
KME1 150338Z 12002KT 24/19 A301 RMK A01 T02440187  RH  070%=      5-min Rain = 0
KME1 150339Z 13002KT 24/19 A301 RMK A01 T02440186  RH  070%=      5-min Rain = 0
KME1 150340Z 12002KT 24/19 A301 RMK A01 T02430186  RH  071%=      5-min Rain = 0
KME1 150341Z 12001KT 24/19 A301 RMK A01 T02420186  RH  071%=      5-min Rain = 0
KME1 150342Z 13000KT 24/19 A301 RMK A01 T02420187  RH  071%=      5-min Rain = 0
KME1 150343Z 00000KT 24/19 A301 RMK A01 T02420187  RH  071%=      5-min Rain = 0
KME1 150344Z 00000KT 24/19 A301 RMK A01 T02410187  RH  072%=      5-min Rain = 0
KME1 150345Z 00000KT 24/19 A301 RMK A01 T02410187  RH  071%=      5-min Rain = 0
KME1 150346Z 00000KT 24/19 A301 RMK A01 T02420186  RH  071%=      5-min Rain = 0
KME1 150347Z 00000KT 24/19 A301 RMK A01 T02410186  RH  071%=      5-min Rain = 0
KME1 150348Z 00000KT 24/19 A301 RMK A01 T02410186  RH  071%=      5-min Rain = 0
KME1 150349Z 00000KT 24/19 A301 RMK A01 T02410186  RH  071%=      5-min Rain = 0
KME1 150350Z 00000KT 24/19 A301 RMK A01 T02410186  RH  071%=      5-min Rain = 0
KME1 150351Z 01001KT 24/19 A301 RMK A01 T02410186  RH  071%=      5-min Rain = 0
KME1 150352Z 00001KT 24/19 A301 RMK A01 T02410186  RH  071%=      5-min Rain = 0
KME1 150353Z 00001KT 24/19 A301 RMK A01 T02400186  RH  071%=      5-min Rain = 0
KME1 150354Z 00001KT 24/19 A301 RMK A01 T02400186  RH  072%=      5-min Rain = 0
KME1 150355Z 00000KT 24/19 A301 RMK A01 T02400186  RH  072%=      5-min Rain = 0
KME1 150356Z 00000KT 24/19 A301 RMK A01 T02400186  RH  072%=      5-min Rain = 0
KME1 150357Z 00000KT 24/19 A301 RMK A01 T02400186  RH  072%=      5-min Rain = 0
KME1 150358Z 00000KT 24/19 A301 RMK A01 T02400186  RH  072%=      5-min Rain = 0
KME1 150359Z 00000KT 24/19 A301 RMK A01 T02400186  RH  072%=      5-min Rain = 0
KME1 150400Z 00000KT 24/19 A3011 RMK A01 T02400186  RH  072%=      5-min Rain = 0
KME1 150401Z 00000KT 24/19 A3011 RMK A01 T02400186  RH  072%=      5-min Rain = 0
KME1 150402Z 00000KT 24/19 A301 RMK A01 T02400186  RH  072%=      5-min Rain = 0
KME1 150403Z 30001KT 24/19 A301 RMK A01 T02400186  RH  072%=      5-min Rain = 0
KME1 150404Z 29001KT 24/19 A301 RMK A01 T02390186  RH  072%=      5-min Rain = 0
KME1 150405Z 28001KT 24/19 A301 RMK A01 T02390186  RH  072%=      5-min Rain = 0
KME1 150406Z 27001KT 24/19 A301 RMK A01 T02390186  RH  072%=      5-min Rain = 0
KME1 150407Z 28001KT 24/19 A301 RMK A01 T02390186  RH  072%=      5-min Rain = 0
KME1 150408Z 28001KT 24/19 A301 RMK A01 T02380186  RH  073%=      5-min Rain = 0
KME1 150409Z 26001KT 24/19 A301 RMK A01 T02380186  RH  073%=      5-min Rain = 0
KME1 150410Z 25002KT 24/19 A301 RMK A01 T02380186  RH  072%=      5-min Rain = 0
KME1 150411Z 24002KT 24/19 A301 RMK A01 T02380186  RH  072%=      5-min Rain = 0
KME1 150412Z 23002KT 24/19 A301 RMK A01 T02380186  RH  072%=      5-min Rain = 0
KME1 150413Z 23002KT 24/19 A301 RMK A01 T02380186  RH  073%=      5-min Rain = 0
KME1 150414Z 22002KT 24/19 A301 RMK A01 T02380186  RH  072%=      5-min Rain = 0
KME1 150415Z 22002KT 24/19 A301 RMK A01 T02380186  RH  073%=      5-min Rain = 0
KME1 150416Z 22002KT 24/19 A301 RMK A01 T02380186  RH  073%=      5-min Rain = 0
KME1 150417Z 22002KT 24/19 A301 RMK A01 T02380187  RH  073%=      5-min Rain = 0
KME1 150418Z 21002KT 24/19 A301 RMK A01 T02380187  RH  073%=      5-min Rain = 0
KME1 150419Z 22002KT 24/19 A301 RMK A01 T02380186  RH  073%=      5-min Rain = 0
KME1 150420Z 23002KT 24/19 A301 RMK A01 T02370186  RH  073%=      5-min Rain = 0
KME1 150421Z 23001KT 24/19 A301 RMK A01 T02370186  RH  073%=      5-min Rain = 0
KME1 150422Z 26001KT 24/19 A301 RMK A01 T02360186  RH  073%=      5-min Rain = 0
KME1 150423Z 30001KT 24/19 A301 RMK A01 T02360186  RH  073%=      5-min Rain = 0
KME1 150424Z 32001KT 24/19 A301 RMK A01 T02360186  RH  073%=      5-min Rain = 0
KME1 150425Z 31001KT 24/19 A301 RMK A01 T02350185  RH  074%=      5-min Rain = 0
KME1 150426Z 31001KT 24/19 A301 RMK A01 T02350186  RH  074%=      5-min Rain = 0
KME1 150427Z 29001KT 24/19 A3011 RMK A01 T02350186  RH  074%=      5-min Rain = 0
KME1 150428Z 28000KT 24/19 A3011 RMK A01 T02350186  RH  074%=      5-min Rain = 0
KME1 150429Z 00000KT 24/19 A301 RMK A01 T02350186  RH  074%=      5-min Rain = 0
KME1 150430Z 00000KT 24/19 A301 RMK A01 T02350186  RH  074%=      5-min Rain = 0
KME1 150431Z 34000KT 24/19 A301 RMK A01 T02350186  RH  074%=      5-min Rain = 0
KME1 150432Z 35001KT 24/19 A3011 RMK A01 T02350185  RH  073%=      5-min Rain = 0
KME1 150433Z 00002KT 24/19 A3011 RMK A01 T02360186  RH  074%=      5-min Rain = 0
KME1 150434Z 00002KT 24/19 A3011 RMK A01 T02350186  RH  074%=      5-min Rain = 0
KME1 150435Z 01003KT 24/19 A3011 RMK A01 T02350186  RH  074%=      5-min Rain = 0
KME1 150436Z 00004KT 24/19 A3011 RMK A01 T02350186  RH  074%=      5-min Rain = 0
KME1 150437Z 00003KT 24/19 A3011 RMK A01 T02350186  RH  074%=      5-min Rain = 0
KME1 150438Z 35003KT 24/19 A3011 RMK A01 T02350186  RH  074%=      5-min Rain = 0
KME1 150439Z 35004KT 24/19 A3011 RMK A01 T02350186  RH  074%=      5-min Rain = 0
KME1 150440Z 35004KT 24/19 A3011 RMK A01 T02350185  RH  074%=      5-min Rain = 0
KME1 150441Z 35004KT 24/19 A3011 RMK A01 T02350185  RH  074%=      5-min Rain = 0
KME1 150442Z 35004KT 24/19 A3012 RMK A01 T02350185  RH  074%=      5-min Rain = 0
KME1 150443Z 35004KT 23/19 A3012 RMK A01 T02340185  RH  074%=      5-min Rain = 0
KME1 150444Z 35004KT 23/18 A3012 RMK A01 T02340184  RH  074%=      5-min Rain = 0
KME1 150445Z 34004KT 23/19 A3012 RMK A01 T02340185  RH  074%=      5-min Rain = 0
KME1 150446Z 35004KT 23/18 A3012 RMK A01 T02340184  RH  074%=      5-min Rain = 0
KME1 150447Z 00003KT 23/18 A3012 RMK A01 T02340184  RH  074%=      5-min Rain = 0
KME1 150448Z 00002KT 23/18 A3012 RMK A01 T02340184  RH  074%=      5-min Rain = 0
KME1 150449Z 00002KT 23/19 A3012 RMK A01 T02340185  RH  074%=      5-min Rain = 0
KME1 150450Z 36001KT 23/18 A3012 RMK A01 T02340184  RH  074%=      5-min Rain = 0
KME1 150451Z 35001KT 23/19 A3012 RMK A01 T02340185  RH  074%=      5-min Rain = 0
KME1 150452Z 34000KT 23/19 A3012 RMK A01 T02340185  RH  074%=      5-min Rain = 0
KME1 150453Z 00000KT 23/19 A3012 RMK A01 T02340185  RH  074%=      5-min Rain = 0
KME1 150454Z 00000KT 23/18 A3012 RMK A01 T02340184  RH  074%=      5-min Rain = 0
KME1 150455Z 06000KT 23/18 A3012 RMK A01 T02340184  RH  074%=      5-min Rain = 0
KME1 150456Z 07001KT 23/18 A3012 RMK A01 T02340184  RH  074%=      5-min Rain = 0
KME1 150457Z 08001KT 23/19 A3012 RMK A01 T02340185  RH  074%=      5-min Rain = 0
KME1 150458Z 09001KT 23/18 A3012 RMK A01 T02330184  RH  074%=      5-min Rain = 0
KME1 150459Z 15001KT 23/19 A3012 RMK A01 T02320185  RH  075%=      5-min Rain = 0

Page generated in 0.1219 seconds.